M I D A S
Marine Information and Data Acquisition System
Tripno 522 of the Zeeleeuw from 2003-06-23 06:31:47 to 2003-06-23 11:49:05
Back to CruiseResearch ActivitiesStationsMapUnderway DataData graphs

EquipmentUnitsComment
TimeDGPSUTC
LatitudeDGPSDM.mWGS84
LongitudeDGPSDM.mWGS84
TemperatureSBE03/SBE38deg celciusITS90
ConductivitySBE21S/mITS90
SalinitySBE21 Practical Salinity Units
ChlorophylAChelsea fluorimeterg/lCalibrated in Aceton
Missing or incorrect values are displayed as -999
Sea surface data collected by the RV Zeeleeuw from 2003-06-23 06:31:47 to 2003-06-23 11:49:05
                                                                                    Next 1000 lines
Time Latitude Longitude Temperature Conductivity Salinity ChlorophylA
2003-06-23 06:31:57 51°13.62 2°56.02 -999 5.128065 34.310538 -0.781249
2003-06-23 06:32:01 51°13.62 2°56.01 -999 5.128065 34.310538 -0.781249
2003-06-23 06:32:07 51°13.62 2°56 -999 5.12817 34.311332 -0.781249
2003-06-23 06:32:13 51°13.62 2°55.99 -999 5.128065 34.310538 -0.74754
2003-06-23 06:32:17 51°13.63 2°55.98 -999 5.127959 34.310257 -0.781249
2003-06-23 06:32:23 51°13.63 2°55.97 -999 5.128065 34.311051 -0.781249
2003-06-23 06:32:29 51°13.63 2°55.96 -999 5.128065 34.311051 -0.781249
2003-06-23 06:32:33 51°13.64 2°55.95 -999 5.128065 34.311051 -0.781249
2003-06-23 06:32:39 51°13.64 2°55.94 -999 5.127959 34.310257 -0.781249
2003-06-23 06:32:43 51°13.64 2°55.93 -999 5.128065 34.311563 -0.781249
2003-06-23 06:32:49 51°13.64 2°55.92 -999 5.128065 34.311563 -0.74754
2003-06-23 06:32:53 51°13.65 2°55.91 -999 5.128065 34.311563 -0.781249
2003-06-23 06:32:59 51°13.65 2°55.9 -999 5.128065 34.311563 -0.781249
2003-06-23 06:33:03 51°13.65 2°55.9 -999 5.127959 34.31077 -0.781249
2003-06-23 06:33:09 51°13.66 2°55.88 -999 5.127854 34.309464 -0.74754
2003-06-23 06:33:13 51°13.66 2°55.88 -999 5.127959 34.31077 -0.74754
2003-06-23 06:33:19 51°13.66 2°55.86 -999 5.128065 34.311563 -0.814958
2003-06-23 06:33:23 51°13.66 2°55.86 -999 5.127959 34.31077 -0.74754
2003-06-23 06:33:29 51°13.67 2°55.85 -999 5.127959 34.31077 -0.781249
2003-06-23 06:33:33 51°13.67 2°55.84 -999 5.127959 34.31077 -0.781249
2003-06-23 06:33:39 51°13.67 2°55.83 -999 5.127854 34.309976 -0.71383
2003-06-23 06:33:43 51°13.67 2°55.82 -999 5.128065 34.311563 -0.781249
2003-06-23 06:33:49 51°13.67 2°55.81 -999 5.127959 34.31077 -0.74754
2003-06-23 06:33:53 51°13.67 2°55.81 -999 5.127959 34.31077 -0.781249
2003-06-23 06:33:57 51°13.68 2°55.8 -999 5.128065 34.311563 -0.781249
2003-06-23 06:34:03 51°13.68 2°55.79 -999 5.128065 34.311563 -0.781249
2003-06-23 06:34:07 51°13.68 2°55.79 -999 5.127854 34.309976 -0.74754
2003-06-23 06:34:11 51°13.68 2°55.78 -999 5.127959 34.31077 -0.74754
2003-06-23 06:34:15 51°13.68 2°55.78 -999 5.127854 34.309976 -0.74754
2003-06-23 06:34:21 51°13.68 2°55.77 -999 5.127959 34.311282 -0.74754
2003-06-23 06:34:25 51°13.68 2°55.77 -999 5.127959 34.31077 -0.781249
2003-06-23 06:34:29 51°13.68 2°55.77 -999 5.127959 34.31077 -0.781249
2003-06-23 06:34:33 51°13.68 2°55.77 -999 5.127959 34.31077 -0.781249
2003-06-23 06:34:39 51°13.68 2°55.77 -999 5.127854 34.310488 -0.781249
2003-06-23 06:34:45 51°13.69 2°55.77 -999 5.127959 34.311282 -0.74754
2003-06-23 06:34:49 51°13.69 2°55.78 -999 5.127959 34.311794 -0.71383
2003-06-23 06:34:53 51°13.69 2°55.78 -999 5.127854 34.312538 -0.781249
2003-06-23 06:34:59 51°13.69 2°55.78 -999 5.127854 34.312538 -0.781249
2003-06-23 06:35:05 51°13.7 2°55.79 -999 5.127854 34.313051 -0.74754
2003-06-23 06:35:09 51°13.7 2°55.79 -999 5.127854 34.313563 -0.74754
2003-06-23 06:35:13 51°13.71 2°55.79 -999 5.127748 34.313282 -0.781249
2003-06-23 06:35:19 51°13.71 2°55.79 -999 5.127959 34.314357 -0.781249
2003-06-23 06:35:25 51°13.72 2°55.79 -999 5.127748 34.311744 -0.814958
2003-06-23 06:35:29 51°13.72 2°55.79 -999 5.127748 34.311744 -0.814958
2003-06-23 06:35:33 51°13.72 2°55.79 -999 5.127748 34.311744 -0.814958
2003-06-23 06:35:39 51°13.72 2°55.79 -999 5.127854 34.311513 -0.781249
2003-06-23 06:35:45 51°13.72 2°55.79 -999 5.127854 34.311513 -0.74754
2003-06-23 06:35:49 51°13.72 2°55.79 -999 5.127854 34.311001 -0.74754
2003-06-23 06:35:53 51°13.72 2°55.79 -999 5.127748 34.310719 -0.74754
2003-06-23 06:36:01 51°13.72 2°55.79 -999 5.127748 34.310719 -0.74754
2003-06-23 06:36:05 51°13.71 2°55.8 -999 5.127854 34.311513 -0.781249
2003-06-23 06:36:11 51°13.71 2°55.8 -999 5.127854 34.312026 -0.781249
2003-06-23 06:36:17 51°13.71 2°55.8 -999 5.127854 34.312026 -0.781249
2003-06-23 06:36:21 51°13.71 2°55.8 -999 5.127854 34.312538 -0.781249
2003-06-23 06:36:27 51°13.71 2°55.8 -999 5.127854 34.312538 -0.781249
2003-06-23 06:36:31 51°13.71 2°55.8 -999 5.127748 34.311232 -0.781249
2003-06-23 06:36:37 51°13.71 2°55.79 -999 5.127748 34.310719 -0.781249
2003-06-23 06:36:43 51°13.71 2°55.79 -999 5.127748 34.310719 -0.74754
2003-06-23 06:36:47 51°13.71 2°55.79 -999 5.127643 34.309926 -0.781249
2003-06-23 06:36:53 51°13.72 2°55.79 -999 5.127748 34.310719 -0.74754
2003-06-23 06:36:57 51°13.72 2°55.79 -999 5.127748 34.310719 -0.74754
2003-06-23 06:37:03 51°13.72 2°55.78 -999 5.127748 34.310719 -0.74754
2003-06-23 06:37:09 51°13.73 2°55.77 -999 5.127748 34.310719 -0.781249
2003-06-23 06:37:13 51°13.73 2°55.77 -999 5.127748 34.311232 -0.781249
2003-06-23 06:37:17 51°13.73 2°55.76 -999 5.127748 34.311232 -0.781249
2003-06-23 06:37:21 51°13.74 2°55.76 -999 5.127748 34.311232 -0.781249
2003-06-23 06:37:27 51°13.74 2°55.75 -999 5.127748 34.311232 -0.814958
2003-06-23 06:37:31 51°13.75 2°55.74 -999 5.127748 34.311232 -0.814958
2003-06-23 06:37:35 51°13.75 2°55.73 -999 5.127748 34.311232 -0.781249
2003-06-23 06:37:39 51°13.75 2°55.72 -999 5.127643 34.310951 -0.781249
2003-06-23 06:37:45 51°13.76 2°55.71 -999 5.127748 34.312257 -0.74754
2003-06-23 06:37:49 51°13.77 2°55.7 -999 5.127643 34.311463 -0.781249
2003-06-23 06:37:53 51°13.77 2°55.69 -999 5.127643 34.311976 -0.781249
2003-06-23 06:37:59 51°13.78 2°55.68 -999 5.127643 34.311976 -0.781249
2003-06-23 06:38:05 51°13.79 2°55.67 -999 5.127643 34.311976 -0.74754
2003-06-23 06:38:09 51°13.8 2°55.66 -999 5.127643 34.311976 -0.781249
2003-06-23 06:38:13 51°13.8 2°55.66 -999 5.127537 34.311694 -0.781249
2003-06-23 06:38:19 51°13.81 2°55.65 -999 5.127643 34.312488 -0.781249
2003-06-23 06:38:25 51°13.82 2°55.64 -999 5.127748 34.313282 -0.74754
2003-06-23 06:38:29 51°13.83 2°55.63 -999 5.127748 34.313282 -0.74754
2003-06-23 06:38:33 51°13.84 2°55.62 -999 5.127537 34.312207 -0.781249
2003-06-23 06:38:39 51°13.85 2°55.62 -999 5.127537 34.312719 -0.781249
2003-06-23 06:38:45 51°13.86 2°55.61 -999 5.127537 34.312207 -0.814958
2003-06-23 06:38:49 51°13.87 2°55.6 -999 5.127643 34.313513 -0.781249
2003-06-23 06:38:53 51°13.88 2°55.6 -999 5.127537 34.312719 -0.74754
2003-06-23 06:38:59 51°13.89 2°55.59 -999 5.127537 34.312719 -0.74754
2003-06-23 06:39:05 51°13.9 2°55.58 -999 5.127537 34.312719 -0.781249
2003-06-23 06:39:09 51°13.91 2°55.57 -999 5.127537 34.312207 -0.781249
2003-06-23 06:39:13 51°13.92 2°55.57 -999 5.127537 34.312719 -0.781249
2003-06-23 06:39:19 51°13.93 2°55.56 -999 5.127431 34.311413 -0.781249
2003-06-23 06:39:25 51°13.94 2°55.55 -999 5.127537 34.312207 -0.814958
2003-06-23 06:39:29 51°13.95 2°55.54 -999 5.127537 34.312207 -0.814958
2003-06-23 06:39:33 51°13.96 2°55.54 -999 5.127537 34.312719 -0.814958
2003-06-23 06:39:39 51°13.97 2°55.53 -999 5.127537 34.312719 -0.781249
2003-06-23 06:39:45 51°13.98 2°55.52 -999 5.127537 34.312207 -0.781249
2003-06-23 06:39:49 51°13.99 2°55.51 -999 5.127431 34.311413 -0.74754
2003-06-23 06:39:53 51°14 2°55.51 -999 5.127537 34.312207 -0.781249
2003-06-23 06:39:59 51°14.01 2°55.5 -999 5.127537 34.312207 -0.781249
2003-06-23 06:40:05 51°14.02 2°55.49 -999 5.127326 34.310619 -0.814958
2003-06-23 06:40:09 51°14.03 2°55.48 -999 5.127537 34.312719 -0.74754
2003-06-23 06:40:13 51°14.04 2°55.48 -999 5.127431 34.311413 -0.781249
2003-06-23 06:40:19 51°14.05 2°55.47 -999 5.127537 34.312207 -0.74754
2003-06-23 06:40:25 51°14.06 2°55.46 -999 5.127326 34.311132 -0.781249
2003-06-23 06:40:29 51°14.07 2°55.45 -999 5.127326 34.311132 -0.781249
2003-06-23 06:40:33 51°14.08 2°55.45 -999 5.127537 34.312719 -0.74754
2003-06-23 06:40:39 51°14.09 2°55.44 -999 5.127431 34.311413 -0.74754
2003-06-23 06:40:45 51°14.1 2°55.43 -999 5.127431 34.311413 -0.781249
2003-06-23 06:40:49 51°14.11 2°55.42 -999 5.127431 34.311413 -0.781249
2003-06-23 06:40:53 51°14.12 2°55.42 -999 5.127431 34.311926 -0.814958
2003-06-23 06:40:59 51°14.13 2°55.41 -999 5.127431 34.311926 -0.814958
2003-06-23 06:41:05 51°14.15 2°55.4 -999 5.127431 34.312438 -0.781249
2003-06-23 06:41:09 51°14.15 2°55.39 -999 5.127432 34.312951 -0.74754
2003-06-23 06:41:13 51°14.16 2°55.39 -999 5.127431 34.311926 -0.781249
2003-06-23 06:41:19 51°14.18 2°55.37 -999 5.127431 34.311926 -0.74754
2003-06-23 06:41:25 51°14.19 2°55.36 -999 5.127431 34.311926 -0.781249
2003-06-23 06:41:29 51°14.2 2°55.35 -999 5.127431 34.311926 -0.781249
2003-06-23 06:41:33 51°14.2 2°55.35 -999 5.12722 34.31085 -0.74754
2003-06-23 06:41:39 51°14.22 2°55.33 -999 5.127431 34.311926 -0.74754
2003-06-23 06:41:45 51°14.23 2°55.32 -999 5.127431 34.312438 -0.781249
2003-06-23 06:41:49 51°14.23 2°55.31 -999 5.127431 34.312438 -0.781249
2003-06-23 06:41:53 51°14.24 2°55.3 -999 5.127326 34.311644 -0.781249
2003-06-23 06:41:59 51°14.25 2°55.28 -999 5.127326 34.311644 -0.781249
2003-06-23 06:42:05 51°14.26 2°55.26 -999 5.127431 34.311926 -0.781249
2003-06-23 06:42:09 51°14.27 2°55.25 -999 5.127326 34.311644 -0.781249
2003-06-23 06:42:13 51°14.28 2°55.24 -999 5.127326 34.311644 -0.781249
2003-06-23 06:42:17 51°14.28 2°55.23 -999 5.127432 34.312951 -0.814958
2003-06-23 06:42:25 51°14.3 2°55.2 -999 5.127326 34.311132 -0.814958
2003-06-23 06:42:29 51°14.31 2°55.19 -999 5.127326 34.311132 -0.814958
2003-06-23 06:42:33 51°14.31 2°55.18 -999 5.127326 34.311132 -0.781249
2003-06-23 06:42:37 51°14.32 2°55.16 -999 5.127431 34.312438 -0.814958
2003-06-23 06:42:45 51°14.33 2°55.14 -999 5.127431 34.312438 -0.814958
2003-06-23 06:42:49 51°14.34 2°55.12 -999 5.127431 34.312438 -0.74754
2003-06-23 06:42:53 51°14.35 2°55.11 -999 5.127326 34.311644 -0.781249
2003-06-23 06:42:57 51°14.35 2°55.09 -999 5.127326 34.311644 -0.781249
2003-06-23 06:43:05 51°14.37 2°55.07 -999 5.12722 34.310338 -0.74754
2003-06-23 06:43:09 51°14.38 2°55.06 -999 5.12722 34.310338 -0.781249
2003-06-23 06:43:13 51°14.39 2°55.04 -999 5.127431 34.311926 -0.781249
2003-06-23 06:43:19 51°14.41 2°55.03 -999 5.12722 34.31085 -0.781249
2003-06-23 06:43:25 51°14.42 2°55.01 -999 5.127326 34.312157 -0.781249
2003-06-23 06:43:29 51°14.44 2°55 -999 5.127326 34.312157 -0.781249
2003-06-23 06:43:33 51°14.45 2°54.99 -999 5.12722 34.311876 -0.814958
2003-06-23 06:43:39 51°14.47 2°54.98 -999 5.127326 34.312157 -0.781249
2003-06-23 06:43:45 51°14.48 2°54.97 -999 5.127326 34.312669 -0.781249
2003-06-23 06:43:49 51°14.5 2°54.96 -999 5.12722 34.311876 -0.74754
2003-06-23 06:43:53 51°14.51 2°54.95 -999 5.12722 34.311876 -0.74754
2003-06-23 06:43:59 51°14.53 2°54.93 -999 5.12722 34.311876 -0.781249
2003-06-23 06:44:05 51°14.54 2°54.91 -999 5.127432 34.313463 -0.74754
2003-06-23 06:44:09 51°14.56 2°54.9 -999 5.127326 34.312669 -0.781249
2003-06-23 06:44:13 51°14.57 2°54.89 -999 5.127326 34.312669 -0.814958
2003-06-23 06:44:19 51°14.59 2°54.87 -999 5.127115 34.311594 -0.781249
2003-06-23 06:44:25 51°14.61 2°54.85 -999 5.12722 34.311876 -0.781249
2003-06-23 06:44:29 51°14.62 2°54.84 -999 5.12722 34.311876 -0.781249
2003-06-23 06:44:33 51°14.63 2°54.83 -999 5.127326 34.312669 -0.74754
2003-06-23 06:44:39 51°14.65 2°54.81 -999 5.127009 34.3108 -0.781249
2003-06-23 06:44:45 51°14.66 2°54.79 -999 5.127326 34.313694 -0.74754
2003-06-23 06:44:49 51°14.68 2°54.78 -999 5.127115 34.312107 -0.781249
2003-06-23 06:44:53 51°14.69 2°54.77 -999 5.12722 34.312388 -0.814958
2003-06-23 06:44:59 51°14.7 2°54.75 -999 5.12722 34.312388 -0.814958
2003-06-23 06:45:05 51°14.72 2°54.73 -999 5.127326 34.313182 -0.781249
2003-06-23 06:45:09 51°14.73 2°54.72 -999 5.127326 34.312669 -0.814958
2003-06-23 06:45:13 51°14.74 2°54.7 -999 5.127115 34.311594 -0.781249
2003-06-23 06:45:19 51°14.76 2°54.68 -999 5.12722 34.311876 -0.74754
2003-06-23 06:45:25 51°14.78 2°54.67 -999 5.12722 34.311876 -0.781249
2003-06-23 06:45:29 51°14.79 2°54.65 -999 5.12722 34.311876 -0.781249
2003-06-23 06:45:33 51°14.8 2°54.64 -999 5.127537 34.314257 -0.74754
2003-06-23 06:45:39 51°14.82 2°54.62 -999 5.127326 34.313182 -0.781249
2003-06-23 06:45:43 51°14.83 2°54.61 -999 5.12722 34.312901 -0.74754
2003-06-23 06:45:49 51°14.85 2°54.59 -999 5.127115 34.311594 -0.74754
2003-06-23 06:45:53 51°14.86 2°54.58 -999 5.127326 34.314207 -0.781249
2003-06-23 06:45:59 51°14.88 2°54.56 -999 5.127326 34.314207 -0.781249
2003-06-23 06:46:05 51°14.9 2°54.54 -999 5.12722 34.312388 -0.781249
2003-06-23 06:46:09 51°14.91 2°54.53 -999 5.127115 34.311594 -0.781249
2003-06-23 06:46:13 51°14.92 2°54.51 -999 5.127326 34.312669 -0.74754
2003-06-23 06:46:17 51°14.93 2°54.5 -999 5.12722 34.311876 -0.781249
2003-06-23 06:46:25 51°14.96 2°54.47 -999 5.127326 34.313182 -0.781249
2003-06-23 06:46:29 51°14.97 2°54.46 -999 5.127326 34.313182 -0.781249
2003-06-23 06:46:33 51°14.98 2°54.45 -999 5.12722 34.312388 -0.781249
2003-06-23 06:46:39 51°15 2°54.43 -999 5.127326 34.313182 -0.781249
2003-06-23 06:46:45 51°15.01 2°54.41 -999 5.127115 34.312107 -0.781249
2003-06-23 06:46:49 51°15.03 2°54.39 -999 5.127115 34.312107 -0.781249
2003-06-23 06:46:53 51°15.04 2°54.38 -999 5.127326 34.313182 -0.781249
2003-06-23 06:46:59 51°15.06 2°54.36 -999 5.127326 34.313182 -0.781249
2003-06-23 06:47:05 51°15.07 2°54.34 -999 5.12722 34.312388 -0.74754
2003-06-23 06:47:09 51°15.08 2°54.33 -999 5.127326 34.313182 -0.781249
2003-06-23 06:47:13 51°15.1 2°54.31 -999 5.127009 34.311313 -0.814958
2003-06-23 06:47:19 51°15.11 2°54.29 -999 5.12722 34.313413 -0.781249
2003-06-23 06:47:25 51°15.13 2°54.27 -999 5.12722 34.312901 -0.814958
2003-06-23 06:47:29 51°15.14 2°54.26 -999 5.12722 34.312901 -0.814958
2003-06-23 06:47:33 51°15.16 2°54.25 -999 5.127115 34.312107 -0.74754
2003-06-23 06:47:39 51°15.17 2°54.23 -999 5.127326 34.314207 -0.781249
2003-06-23 06:47:45 51°15.19 2°54.21 -999 5.12722 34.312901 -0.781249
2003-06-23 06:47:49 51°15.2 2°54.19 -999 5.127115 34.311594 -0.781249
2003-06-23 06:47:53 51°15.22 2°54.18 -999 5.127115 34.312107 -0.781249
2003-06-23 06:47:59 51°15.23 2°54.16 -999 5.127115 34.312107 -0.781249
2003-06-23 06:48:05 51°15.25 2°54.14 -999 5.127009 34.311313 -0.74754
2003-06-23 06:48:09 51°15.27 2°54.13 -999 5.12722 34.312901 -0.74754
2003-06-23 06:48:13 51°15.28 2°54.12 -999 5.12722 34.313413 -0.781249
2003-06-23 06:48:19 51°15.3 2°54.1 -999 5.127009 34.311313 -0.74754
2003-06-23 06:48:25 51°15.31 2°54.08 -999 5.127009 34.311826 -0.74754
2003-06-23 06:48:29 51°15.33 2°54.06 -999 5.127009 34.311826 -0.74754
2003-06-23 06:48:33 51°15.34 2°54.05 -999 5.127115 34.312107 -0.74754
2003-06-23 06:48:37 51°15.35 2°54.04 -999 5.127115 34.312619 -0.781249
2003-06-23 06:48:45 51°15.38 2°54.02 -999 5.127115 34.312619 -0.814958
2003-06-23 06:48:49 51°15.39 2°54 -999 5.12722 34.313413 -0.74754
2003-06-23 06:48:53 51°15.4 2°53.99 -999 5.127115 34.312107 -0.781249
2003-06-23 06:48:59 51°15.42 2°53.98 -999 5.127115 34.312107 -0.781249
2003-06-23 06:49:05 51°15.44 2°53.96 -999 5.127009 34.311826 -0.74754
2003-06-23 06:49:09 51°15.45 2°53.95 -999 5.127115 34.313132 -0.74754
2003-06-23 06:49:13 51°15.47 2°53.93 -999 5.12722 34.313413 -0.781249
2003-06-23 06:49:19 51°15.49 2°53.92 -999 5.127115 34.312107 -0.781249
2003-06-23 06:49:25 51°15.51 2°53.9 -999 5.127115 34.312619 -0.74754
2003-06-23 06:49:29 51°15.52 2°53.89 -999 5.127115 34.312619 -0.74754
2003-06-23 06:49:33 51°15.53 2°53.88 -999 5.127115 34.312619 -0.781249
2003-06-23 06:49:39 51°15.55 2°53.86 -999 5.127115 34.312619 -0.74754
2003-06-23 06:49:45 51°15.57 2°53.84 -999 5.126904 34.311032 -0.781249
2003-06-23 06:49:49 51°15.58 2°53.83 -999 5.12722 34.312901 -0.781249
2003-06-23 06:49:53 51°15.6 2°53.82 -999 5.127115 34.312619 -0.781249
2003-06-23 06:49:59 51°15.62 2°53.8 -999 5.127115 34.312619 -0.781249
2003-06-23 06:50:05 51°15.64 2°53.78 -999 5.127009 34.312338 -0.781249
2003-06-23 06:50:09 51°15.65 2°53.77 -999 5.127115 34.313132 -0.74754
2003-06-23 06:50:13 51°15.66 2°53.76 -999 5.127115 34.312619 -0.781249
2003-06-23 06:50:19 51°15.68 2°53.74 -999 5.127115 34.312619 -0.74754
2003-06-23 06:50:25 51°15.7 2°53.72 -999 5.127115 34.313132 -0.781249
2003-06-23 06:50:29 51°15.72 2°53.71 -999 5.127115 34.313132 -0.781249
2003-06-23 06:50:33 51°15.73 2°53.7 -999 5.127009 34.312338 -0.781249
2003-06-23 06:50:39 51°15.75 2°53.68 -999 5.127115 34.312619 -0.74754
2003-06-23 06:50:45 51°15.77 2°53.67 -999 5.127009 34.311826 -0.814958
2003-06-23 06:50:49 51°15.78 2°53.65 -999 5.127009 34.312338 -0.781249
2003-06-23 06:50:53 51°15.79 2°53.64 49.281967 5.12722 34.313926 -0.814958
2003-06-23 06:50:59 51°15.81 2°53.62 49.281967 5.12722 34.313926 -0.814958
2003-06-23 06:51:05 51°15.83 2°53.61 47.831213 5.12722 34.313926 -0.781249
2003-06-23 06:51:09 51°15.85 2°53.6 47.828127 5.126904 34.311032 -0.74754
2003-06-23 06:51:13 51°15.86 2°53.58 48.039697 5.127326 34.314207 -0.781249
2003-06-23 06:51:19 51°15.88 2°53.57 47.375519 5.127115 34.313132 -0.74754
2003-06-23 06:51:25 51°15.9 2°53.55 47.924817 5.127115 34.312619 -0.781249
2003-06-23 06:51:29 51°15.91 2°53.54 47.924817 5.127115 34.312619 -0.781249
2003-06-23 06:51:33 51°15.93 2°53.52 47.819891 5.127115 34.313132 -0.781249
2003-06-23 06:51:39 51°15.95 2°53.51 48.073516 5.12722 34.313413 -0.74754
2003-06-23 06:51:45 51°15.97 2°53.49 49.145249 5.12722 34.313926 -0.814958
2003-06-23 06:51:49 51°15.98 2°53.48 49.041649 5.127009 34.312338 -0.74754
2003-06-23 06:51:53 51°15.99 2°53.47 49.427863 5.12722 34.313926 -0.74754
2003-06-23 06:51:59 51°16.01 2°53.45 49.427863 5.12722 34.313926 -0.74754
2003-06-23 06:52:05 51°16.03 2°53.43 49.669921 5.127115 34.312619 -0.781249
2003-06-23 06:52:09 51°16.04 2°53.42 48.273167 5.12722 34.313926 -0.74754
2003-06-23 06:52:13 51°16.06 2°53.41 49.563668 5.127009 34.312338 -0.74754
2003-06-23 06:52:19 51°16.08 2°53.39 47.634281 5.127115 34.313132 -0.814958
2003-06-23 06:52:25 51°16.1 2°53.37 48.877489 5.127009 34.312338 -0.781249
2003-06-23 06:52:29 51°16.11 2°53.36 48.877489 5.127009 34.312338 -0.781249
2003-06-23 06:52:33 51°16.12 2°53.35 49.177359 5.12722 34.313926 -0.781249
2003-06-23 06:52:39 51°16.14 2°53.33 49.22291 5.127115 34.313132 -0.74754
2003-06-23 06:52:45 51°16.16 2°53.31 48.789863 5.127326 34.31472 -0.814958
2003-06-23 06:52:49 51°16.18 2°53.3 48.274998 5.12722 34.313413 -0.814958
2003-06-23 06:52:53 51°16.19 2°53.29 47.82207 5.127009 34.312338 -0.814958
2003-06-23 06:52:59 51°16.21 2°53.27 47.82207 5.127009 34.312338 -0.814958
2003-06-23 06:53:05 51°16.23 2°53.25 49.741109 5.12722 34.313926 -0.781249
2003-06-23 06:53:09 51°16.25 2°53.24 48.124812 5.127009 34.312338 -0.74754
2003-06-23 06:53:13 51°16.26 2°53.23 49.861969 5.127115 34.313645 -0.74754
2003-06-23 06:53:19 51°16.28 2°53.21 49.150825 5.127115 34.313132 -0.781249
2003-06-23 06:53:25 51°16.3 2°53.19 48.860849 5.126904 34.311544 -0.781249
2003-06-23 06:53:29 51°16.31 2°53.18 48.860849 5.126904 34.311544 -0.781249
2003-06-23 06:53:33 51°16.32 2°53.17 49.478478 5.127115 34.313132 -0.781249
2003-06-23 06:53:39 51°16.34 2°53.15 48.817599 5.127115 34.313132 -0.74754
2003-06-23 06:53:45 51°16.37 2°53.13 48.929878 5.127326 34.31472 -0.781249
2003-06-23 06:53:49 51°16.38 2°53.12 48.381315 5.12722 34.313926 -0.74754
2003-06-23 06:53:53 51°16.39 2°53.11 48.994244 5.127115 34.313132 -0.74754
2003-06-23 06:53:59 51°16.41 2°53.1 48.994244 5.127115 34.313132 -0.74754
2003-06-23 06:54:05 51°16.43 2°53.08 48.704278 5.12722 34.314438 -0.781249
2003-06-23 06:54:09 51°16.45 2°53.07 48.359347 5.126798 34.311263 -0.781249
2003-06-23 06:54:13 51°16.46 2°53.06 48.728847 5.12722 34.313926 -0.781249
2003-06-23 06:54:19 51°16.48 2°53.05 49.483421 5.127009 34.312851 -0.781249
2003-06-23 06:54:25 51°16.5 2°53.03 49.665376 5.12722 34.314438 -0.781249
2003-06-23 06:54:29 51°16.52 2°53.02 49.665376 5.12722 34.314438 -0.781249
2003-06-23 06:54:33 51°16.53 2°53.01 -999 5.127115 34.313132 -0.781249
2003-06-23 06:54:39 51°16.55 2°53 49.416775 5.127115 34.313645 -0.781249
2003-06-23 06:54:45 51°16.57 2°52.98 -999 5.12722 34.313926 -0.781249
2003-06-23 06:54:49 51°16.59 2°52.97 45.456949 5.127009 34.312851 -0.781249
2003-06-23 06:54:53 51°16.6 2°52.96 46.101455 5.127115 34.313645 -0.74754
2003-06-23 06:54:59 51°16.62 2°52.94 46.101455 5.127115 34.313645 -0.74754
2003-06-23 06:55:05 51°16.64 2°52.93 45.198041 5.127115 34.313132 -0.781249
2003-06-23 06:55:09 51°16.66 2°52.92 45.579919 5.127115 34.313132 -0.781249
2003-06-23 06:55:13 51°16.67 2°52.91 45.269404 5.127115 34.313645 -0.74754
2003-06-23 06:55:19 51°16.69 2°52.89 47.229374 5.127115 34.313132 -0.814958
2003-06-23 06:55:25 51°16.71 2°52.88 48.666415 5.12722 34.314438 -0.781249
2003-06-23 06:55:29 51°16.73 2°52.87 48.666415 5.12722 34.314438 -0.781249
2003-06-23 06:55:33 51°16.74 2°52.86 47.998464 5.127115 34.313645 -0.781249
2003-06-23 06:55:39 51°16.76 2°52.84 47.234903 5.127009 34.312338 -0.814958
2003-06-23 06:55:45 51°16.79 2°52.82 45.630753 5.127009 34.312851 -0.781249
2003-06-23 06:55:49 51°16.8 2°52.81 45.892199 5.127115 34.313132 -0.781249
2003-06-23 06:55:53 51°16.81 2°52.8 45.273953 5.127115 34.313132 -0.814958
2003-06-23 06:55:59 51°16.83 2°52.79 45.273953 5.127115 34.313132 -0.814958
2003-06-23 06:56:05 51°16.86 2°52.77 45.442166 5.127115 34.313645 -0.781249
2003-06-23 06:56:09 51°16.87 2°52.76 47.073072 5.12722 34.313926 -0.781249
2003-06-23 06:56:13 51°16.88 2°52.75 47.854701 5.127009 34.312851 -0.781249
2003-06-23 06:56:19 51°16.91 2°52.74 47.14086 5.126904 34.312057 -0.74754
2003-06-23 06:56:25 51°16.93 2°52.72 46.462346 5.127326 34.315232 -0.781249
2003-06-23 06:56:29 51°16.94 2°52.71 46.462346 5.127326 34.315232 -0.781249
2003-06-23 06:56:33 51°16.96 2°52.7 46.582066 5.127115 34.313645 -0.814958
2003-06-23 06:56:39 51°16.98 2°52.68 47.166676 5.126904 34.312569 -0.781249
2003-06-23 06:56:45 51°17 2°52.67 46.251351 5.127115 34.313645 -0.814958
2003-06-23 06:56:49 51°17.01 2°52.66 47.028032 5.127115 34.313645 -0.781249
2003-06-23 06:56:53 51°17.03 2°52.65 46.654317 5.127115 34.313132 -0.781249
2003-06-23 06:56:59 51°17.05 2°52.63 46.654317 5.127115 34.313132 -0.781249
2003-06-23 06:57:05 51°17.07 2°52.62 46.936851 5.127115 34.313132 -0.781249
2003-06-23 06:57:09 51°17.08 2°52.61 47.116206 5.127115 34.313645 -0.74754
2003-06-23 06:57:13 51°17.1 2°52.6 43.396445 5.12722 34.313926 -0.74754
2003-06-23 06:57:19 51°17.12 2°52.58 43.022842 5.12722 34.314438 -0.781249
2003-06-23 06:57:25 51°17.14 2°52.56 45.052473 5.127009 34.313363 -0.781249
2003-06-23 06:57:29 51°17.15 2°52.55 45.052473 5.127009 34.313363 -0.781249
2003-06-23 06:57:33 51°17.17 2°52.54 44.707053 5.127326 34.31472 -0.781249
2003-06-23 06:57:39 51°17.19 2°52.53 44.779623 5.127115 34.313645 -0.74754
2003-06-23 06:57:45 51°17.21 2°52.51 48.448617 5.127115 34.313645 -0.781249
2003-06-23 06:57:49 51°17.22 2°52.5 48.794762 5.127115 34.313645 -0.781249
2003-06-23 06:57:53 51°17.24 2°52.49 48.675525 5.127009 34.312851 -0.781249
2003-06-23 06:57:59 51°17.26 2°52.48 48.675525 5.127009 34.312851 -0.781249
2003-06-23 06:58:05 51°17.28 2°52.46 47.207739 5.127115 34.313132 -0.781249
2003-06-23 06:58:09 51°17.29 2°52.45 47.802565 5.127115 34.313645 -0.814958
2003-06-23 06:58:13 51°17.31 2°52.44 48.457188 5.127326 34.315232 -0.74754
2003-06-23 06:58:19 51°17.33 2°52.42 48.3605 5.12722 34.314438 -0.781249
2003-06-23 06:58:25 51°17.35 2°52.41 47.747621 5.127115 34.313645 -0.781249
2003-06-23 06:58:29 51°17.37 2°52.4 47.747621 5.127115 34.313645 -0.781249
2003-06-23 06:58:33 51°17.38 2°52.39 43.612028 5.12722 34.313926 -0.74754
2003-06-23 06:58:39 51°17.4 2°52.37 44.686999 5.127115 34.313645 -0.781249
2003-06-23 06:58:45 51°17.42 2°52.36 45.527281 5.12722 34.314438 -0.74754
2003-06-23 06:58:49 51°17.44 2°52.35 45.219228 5.127326 34.315232 -0.781249
2003-06-23 06:58:53 51°17.45 2°52.34 47.760794 5.127009 34.312851 -0.781249
2003-06-23 06:58:59 51°17.47 2°52.32 47.760794 5.127009 34.312851 -0.781249
2003-06-23 06:59:05 51°17.49 2°52.31 46.271932 5.127009 34.312851 -0.781249
2003-06-23 06:59:09 51°17.51 2°52.3 47.422454 5.127326 34.31472 -0.74754
2003-06-23 06:59:13 51°17.52 2°52.29 45.730097 5.127115 34.313132 -0.814958
2003-06-23 06:59:19 51°17.54 2°52.27 44.113145 5.12722 34.313926 -0.781249
2003-06-23 06:59:25 51°17.56 2°52.26 45.800638 5.127115 34.313645 -0.781249
2003-06-23 06:59:29 51°17.58 2°52.25 45.800638 5.127115 34.313645 -0.781249
2003-06-23 06:59:33 51°17.59 2°52.23 44.607766 5.127115 34.313645 -0.781249
2003-06-23 06:59:39 51°17.61 2°52.22 47.867914 5.12722 34.314438 -0.814958
2003-06-23 06:59:45 51°17.63 2°52.2 47.021118 5.127115 34.313132 -0.781249
2003-06-23 06:59:49 51°17.65 2°52.19 47.185385 5.12722 34.313926 -0.781249
2003-06-23 06:59:53 51°17.66 2°52.18 46.363104 5.12722 34.313926 -0.814958
2003-06-23 06:59:59 51°17.68 2°52.17 46.363104 5.12722 34.313926 -0.814958
2003-06-23 07:00:05 51°17.7 2°52.15 45.388044 5.127115 34.313645 -0.781249
2003-06-23 07:00:09 51°17.72 2°52.14 48.008774 5.12722 34.313926 -0.781249
2003-06-23 07:00:13 51°17.73 2°52.13 49.341289 5.127115 34.314157 -0.781249
2003-06-23 07:00:19 51°17.75 2°52.12 48.564152 5.127326 34.31472 -0.781249
2003-06-23 07:00:25 51°17.77 2°52.1 49.942671 5.127009 34.312851 -0.814958
2003-06-23 07:00:29 51°17.79 2°52.09 49.942671 5.127009 34.312851 -0.814958
2003-06-23 07:00:33 51°17.8 2°52.08 47.125766 5.127326 34.31472 -0.781249
2003-06-23 07:00:39 51°17.82 2°52.06 46.964816 5.12722 34.313926 -0.781249
2003-06-23 07:00:45 51°17.84 2°52.05 46.98877 5.12722 34.314438 -0.74754
2003-06-23 07:00:49 51°17.86 2°52.04 47.897643 5.12722 34.314438 -0.781249
2003-06-23 07:00:53 51°17.87 2°52.03 48.695395 5.127115 34.313132 -0.781249
2003-06-23 07:00:59 51°17.89 2°52.01 48.695395 5.127115 34.313132 -0.781249
2003-06-23 07:01:05 51°17.91 2°52 47.116948 5.127537 34.316307 -0.781249
2003-06-23 07:01:09 51°17.93 2°51.99 47.15404 5.127432 34.315001 -0.74754
2003-06-23 07:01:13 51°17.94 2°51.97 47.396202 5.12722 34.314438 -0.781249
2003-06-23 07:01:19 51°17.96 2°51.95 48.620375 5.12722 34.315464 -0.781249
2003-06-23 07:01:25 51°17.97 2°51.93 48.14932 5.12722 34.315976 -0.781249
2003-06-23 07:01:29 51°17.98 2°51.91 48.14932 5.12722 34.315976 -0.781249
2003-06-23 07:01:33 51°17.99 2°51.9 48.269732 5.127326 34.315745 -0.781249
2003-06-23 07:01:39 51°18.01 2°51.87 48.330564 5.127432 34.316026 -0.781249
2003-06-23 07:01:45 51°18.02 2°51.84 46.35294 5.127115 34.313132 -0.74754
2003-06-23 07:01:49 51°18.03 2°51.82 48.659631 5.12722 34.313926 -0.781249
2003-06-23 07:01:53 51°18.04 2°51.81 46.451216 5.12722 34.313413 -0.814958
2003-06-23 07:01:59 51°18.06 2°51.78 46.451216 5.12722 34.313413 -0.814958
2003-06-23 07:02:05 51°18.07 2°51.75 49.483616 5.127432 34.315514 -0.781249
2003-06-23 07:02:09 51°18.08 2°51.73 47.156122 5.12722 34.313926 -0.781249
2003-06-23 07:02:13 51°18.09 2°51.71 44.475779 5.127326 34.31472 -0.74754
2003-06-23 07:02:19 51°18.1 2°51.69 44.59689 5.127326 34.315232 -0.74754
2003-06-23 07:02:25 51°18.12 2°51.66 43.261703 5.127432 34.315514 -0.74754
2003-06-23 07:02:29 51°18.13 2°51.64 43.261703 5.127432 34.315514 -0.74754
2003-06-23 07:02:33 51°18.14 2°51.62 44.401444 5.127326 34.31472 -0.74754
2003-06-23 07:02:39 51°18.15 2°51.6 43.751671 5.127326 34.315232 -0.781249
2003-06-23 07:02:45 51°18.16 2°51.57 44.789038 5.127326 34.31472 -0.781249
2003-06-23 07:02:49 51°18.17 2°51.55 45.093835 5.127432 34.315001 -0.781249
2003-06-23 07:02:53 51°18.18 2°51.53 48.941447 5.127115 34.313132 -0.74754
2003-06-23 07:02:59 51°18.2 2°51.5 48.941447 5.127115 34.313132 -0.74754
2003-06-23 07:03:05 51°18.21 2°51.48 47.766657 5.127326 34.31472 -0.781249
2003-06-23 07:03:09 51°18.22 2°51.46 49.351664 5.127643 34.316589 -0.781249
2003-06-23 07:03:13 51°18.23 2°51.44 48.274237 5.127326 34.31472 -0.74754
2003-06-23 07:03:19 51°18.25 2°51.41 48.325724 5.127326 34.314207 -0.781249
2003-06-23 07:03:25 51°18.26 2°51.38 -999 5.127326 34.315745 -0.781249
2003-06-23 07:03:29 51°18.27 2°51.37 -999 5.127326 34.315745 -0.781249
2003-06-23 07:03:33 51°18.28 2°51.35 48.527014 5.127537 34.316307 -0.814958
2003-06-23 07:03:39 51°18.29 2°51.32 48.111553 5.12722 34.314438 -0.74754
2003-06-23 07:03:45 51°18.31 2°51.29 48.46306 5.127326 34.31472 -0.781249
2003-06-23 07:03:49 51°18.32 2°51.28 47.350676 5.127432 34.315001 -0.781249
2003-06-23 07:03:53 51°18.33 2°51.26 48.626545 5.127326 34.314207 -0.781249
2003-06-23 07:03:59 51°18.34 2°51.23 48.626545 5.127326 34.314207 -0.781249
2003-06-23 07:04:05 51°18.36 2°51.2 47.656263 5.127432 34.315514 -0.781249
2003-06-23 07:04:09 51°18.37 2°51.18 46.581377 5.127326 34.314207 -0.74754
2003-06-23 07:04:13 51°18.38 2°51.17 47.16853 5.127326 34.31472 -0.781249
2003-06-23 07:04:19 51°18.39 2°51.14 47.202151 5.127432 34.315001 -0.781249
2003-06-23 07:04:25 51°18.41 2°51.11 47.310565 5.127432 34.315001 -0.781249
2003-06-23 07:04:29 51°18.42 2°51.09 47.310565 5.127432 34.315001 -0.781249
2003-06-23 07:04:33 51°18.43 2°51.08 46.467206 5.127326 34.314207 -0.781249
2003-06-23 07:04:39 51°18.44 2°51.05 46.947374 5.127537 34.31682 -0.781249
2003-06-23 07:04:45 51°18.45 2°51.02 47.218885 5.127432 34.315514 -0.781249
2003-06-23 07:04:49 51°18.46 2°51.01 47.177799 5.127432 34.315514 -0.781249
2003-06-23 07:04:53 51°18.47 2°50.99 47.266731 5.127537 34.316307 -0.74754
2003-06-23 07:04:59 51°18.49 2°50.96 47.266731 5.127537 34.316307 -0.74754
2003-06-23 07:05:05 51°18.5 2°50.94 45.807129 5.127432 34.315001 -0.781249
2003-06-23 07:05:09 51°18.51 2°50.92 47.361918 5.127326 34.31472 -0.74754
2003-06-23 07:05:13 51°18.52 2°50.9 46.657502 5.127326 34.31472 -0.74754
2003-06-23 07:05:19 51°18.54 2°50.88 46.471347 5.127432 34.315514 -0.74754
2003-06-23 07:05:25 51°18.55 2°50.85 46.80342 5.127326 34.31472 -0.781249
2003-06-23 07:05:29 51°18.56 2°50.83 46.80342 5.127326 34.31472 -0.781249
2003-06-23 07:05:33 51°18.57 2°50.82 45.596887 5.127432 34.315001 -0.781249
2003-06-23 07:05:39 51°18.58 2°50.79 46.591801 5.127537 34.316307 -0.74754
2003-06-23 07:05:45 51°18.6 2°50.76 45.736768 5.127432 34.315001 -0.781249
2003-06-23 07:05:49 51°18.61 2°50.75 45.503466 5.127537 34.315795 -0.74754
2003-06-23 07:05:53 51°18.62 2°50.73 45.676304 5.127643 34.317101 -0.814958
2003-06-23 07:05:59 51°18.63 2°50.71 45.676304 5.127643 34.317101 -0.814958
2003-06-23 07:06:05 51°18.65 2°50.68 45.037034 5.127643 34.316589 -0.781249
2003-06-23 07:06:09 51°18.65 2°50.66 45.86168 5.127326 34.314207 -0.74754
2003-06-23 07:06:13 51°18.66 2°50.64 46.005001 5.127537 34.315282 -0.74754
2003-06-23 07:06:19 51°18.68 2°50.62 46.441063 5.127537 34.315282 -0.781249
2003-06-23 07:06:25 51°18.69 2°50.59 45.936713 5.127537 34.315795 -0.74754
2003-06-23 07:06:29 51°18.7 2°50.58 45.936713 5.127537 34.315795 -0.74754
2003-06-23 07:06:33 51°18.71 2°50.56 45.076649 5.127432 34.315001 -0.74754
2003-06-23 07:06:39 51°18.73 2°50.53 45.82663 5.127432 34.315001 -0.781249
2003-06-23 07:06:45 51°18.74 2°50.51 46.607046 5.127432 34.314488 -0.74754
2003-06-23 07:06:49 51°18.75 2°50.49 44.344117 5.127432 34.315001 -0.781249
2003-06-23 07:06:53 51°18.76 2°50.47 45.829991 5.127537 34.315795 -0.781249
2003-06-23 07:06:59 51°18.78 2°50.45 45.829991 5.127537 34.315795 -0.781249
2003-06-23 07:07:05 51°18.79 2°50.42 43.922557 5.127537 34.315795 -0.74754
2003-06-23 07:07:09 51°18.8 2°50.4 44.610381 5.127748 34.317895 -0.781249
2003-06-23 07:07:13 51°18.81 2°50.38 45.128837 5.127537 34.315282 -0.74754
2003-06-23 07:07:19 51°18.82 2°50.36 46.092068 5.127537 34.315795 -0.74754
2003-06-23 07:07:25 51°18.83 2°50.33 46.553574 5.127854 34.317664 -0.74754
2003-06-23 07:07:29 51°18.84 2°50.31 46.553574 5.127854 34.317664 -0.74754
2003-06-23 07:07:33 51°18.85 2°50.3 45.545916 5.127432 34.314488 -0.74754
2003-06-23 07:07:39 51°18.87 2°50.27 45.332169 5.127643 34.316076 -0.781249
2003-06-23 07:07:45 51°18.88 2°50.24 46.0233 5.127748 34.317382 -0.781249
2003-06-23 07:07:49 51°18.89 2°50.23 45.688435 5.127643 34.316589 -0.74754
2003-06-23 07:07:53 51°18.9 2°50.21 44.772378 5.127643 34.316589 -0.74754
2003-06-23 07:07:59 51°18.91 2°50.18 44.772378 5.127643 34.316589 -0.74754
2003-06-23 07:08:05 51°18.93 2°50.16 44.701269 5.127854 34.317151 -0.781249
2003-06-23 07:08:09 51°18.94 2°50.14 45.502506 5.127537 34.315795 -0.781249
2003-06-23 07:08:13 51°18.95 2°50.12 44.751019 5.127537 34.315795 -0.74754
2003-06-23 07:08:19 51°18.96 2°50.1 45.715912 5.127748 34.316357 -0.814958
2003-06-23 07:08:25 51°18.97 2°50.07 46.121552 5.127537 34.315795 -0.74754
2003-06-23 07:08:29 51°18.98 2°50.05 46.121552 5.127537 34.315795 -0.74754
2003-06-23 07:08:33 51°18.99 2°50.03 44.33188 5.127537 34.315795 -0.781249
2003-06-23 07:08:39 51°19.01 2°50.01 45.123316 5.127748 34.317382 -0.781249
2003-06-23 07:08:45 51°19.02 2°49.98 42.598259 5.127748 34.31687 -0.74754
2003-06-23 07:08:49 51°19.03 2°49.97 44.403919 5.127643 34.315563 -0.74754
2003-06-23 07:08:53 51°19.04 2°49.95 45.305734 5.127537 34.315795 -0.781249
2003-06-23 07:08:59 51°19.05 2°49.92 45.305734 5.127537 34.315795 -0.781249
2003-06-23 07:09:05 51°19.06 2°49.9 43.653449 5.127854 34.318176 -0.781249
2003-06-23 07:09:09 51°19.07 2°49.88 44.936143 5.127643 34.315563 -0.74754
2003-06-23 07:09:13 51°19.08 2°49.86 45.603452 5.127748 34.31687 -0.781249
2003-06-23 07:09:19 51°19.09 2°49.84 45.937349 5.127643 34.316076 -0.781249
2003-06-23 07:09:25 51°19.11 2°49.82 44.891482 5.127643 34.316076 -0.781249
2003-06-23 07:09:29 51°19.12 2°49.8 44.891482 5.127643 34.316076 -0.781249
2003-06-23 07:09:33 51°19.13 2°49.78 44.142143 5.127537 34.31477 -0.781249
2003-06-23 07:09:39 51°19.14 2°49.76 44.577427 5.127748 34.31687 -0.814958
2003-06-23 07:09:45 51°19.15 2°49.74 45.272466 5.127643 34.316076 -0.74754
2003-06-23 07:09:49 51°19.16 2°49.72 45.465388 5.127748 34.31687 -0.781249
2003-06-23 07:09:53 51°19.17 2°49.7 43.903324 5.127854 34.317151 -0.781249
2003-06-23 07:09:59 51°19.18 2°49.68 43.903324 5.127854 34.317151 -0.781249
2003-06-23 07:10:05 51°19.2 2°49.65 40.7591 5.127537 34.315282 -0.781249
2003-06-23 07:10:09 51°19.21 2°49.64 41.188242 5.127748 34.316357 -0.74754
2003-06-23 07:10:13 51°19.21 2°49.62 40.584955 5.127748 34.316357 -0.814958
2003-06-23 07:10:19 51°19.23 2°49.6 42.681731 5.127537 34.315282 -0.74754
2003-06-23 07:10:25 51°19.24 2°49.57 41.691774 5.127748 34.31687 -0.781249
2003-06-23 07:10:29 51°19.25 2°49.55 41.691774 5.127748 34.31687 -0.781249
2003-06-23 07:10:33 51°19.26 2°49.54 41.192284 5.127854 34.317664 -0.781249
2003-06-23 07:10:39 51°19.27 2°49.51 45.275849 5.127854 34.317664 -0.74754
2003-06-23 07:10:45 51°19.29 2°49.49 44.320703 5.127748 34.316357 -0.781249
2003-06-23 07:10:49 51°19.3 2°49.47 44.487407 5.128065 34.318739 -0.74754
2003-06-23 07:10:53 51°19.3 2°49.46 44.669878 5.127854 34.316638 -0.781249
2003-06-23 07:10:59 51°19.32 2°49.43 44.669878 5.127854 34.316638 -0.781249
2003-06-23 07:11:05 51°19.33 2°49.41 44.670407 5.127748 34.31687 -0.781249
2003-06-23 07:11:09 51°19.34 2°49.39 44.224591 5.127959 34.317945 -0.781249
2003-06-23 07:11:13 51°19.35 2°49.37 43.692502 5.127854 34.317151 -0.781249
2003-06-23 07:11:19 51°19.36 2°49.35 44.852307 5.127959 34.317945 -0.74754
2003-06-23 07:11:25 51°19.38 2°49.32 44.613497 5.127748 34.316357 -0.781249
2003-06-23 07:11:29 51°19.39 2°49.31 44.613497 5.127748 34.316357 -0.781249
2003-06-23 07:11:33 51°19.4 2°49.29 44.902408 5.127854 34.316638 -0.781249
2003-06-23 07:11:39 51°19.41 2°49.27 45.501255 5.127748 34.316357 -0.781249
2003-06-23 07:11:45 51°19.42 2°49.24 44.790329 5.127959 34.317945 -0.74754
2003-06-23 07:11:49 51°19.43 2°49.22 45.704568 5.127854 34.317151 -0.781249
2003-06-23 07:11:53 51°19.44 2°49.21 42.938152 5.127643 34.315563 -0.781249
2003-06-23 07:11:59 51°19.45 2°49.18 42.938152 5.127643 34.315563 -0.781249
2003-06-23 07:12:05 51°19.47 2°49.16 41.975446 5.127854 34.317664 -0.781249
2003-06-23 07:12:09 51°19.48 2°49.14 42.149858 5.128065 34.318226 -0.74754
2003-06-23 07:12:13 51°19.49 2°49.12 42.614846 5.127748 34.31687 -0.74754
2003-06-23 07:12:19 51°19.5 2°49.1 40.745615 5.127748 34.317382 -0.781249
2003-06-23 07:12:25 51°19.51 2°49.07 45.227778 5.127959 34.319483 -0.781249
2003-06-23 07:12:29 51°19.51 2°49.05 45.227778 5.127959 34.319483 -0.781249
2003-06-23 07:12:33 51°19.52 2°49.03 44.787836 5.127854 34.318689 -0.781249
2003-06-23 07:12:39 51°19.52 2°49 44.641854 5.127854 34.317664 -0.781249
2003-06-23 07:12:45 51°19.53 2°48.97 44.941266 5.127959 34.318457 -0.74754
2003-06-23 07:12:49 51°19.53 2°48.95 44.793936 5.127854 34.316638 -0.781249
2003-06-23 07:12:53 51°19.54 2°48.93 44.389275 5.127959 34.317432 -0.781249
2003-06-23 07:12:57 51°19.54 2°48.91 44.389275 5.127959 34.317432 -0.781249
2003-06-23 07:13:05 51°19.55 2°48.87 45.111221 5.127854 34.316638 -0.781249
2003-06-23 07:13:09 51°19.55 2°48.85 44.786927 5.127959 34.31692 -0.814958
2003-06-23 07:13:13 51°19.56 2°48.83 45.422489 5.127959 34.317432 -0.814958
2003-06-23 07:13:19 51°19.56 2°48.8 44.875691 5.127959 34.317432 -0.814958
2003-06-23 07:13:25 51°19.57 2°48.77 45.592558 5.127854 34.317151 -0.781249
2003-06-23 07:13:29 51°19.57 2°48.74 45.592558 5.127854 34.317151 -0.781249
2003-06-23 07:13:33 51°19.57 2°48.72 43.714843 5.128065 34.318226 -0.781249
2003-06-23 07:13:39 51°19.58 2°48.69 44.60221 5.127854 34.317151 -0.781249
2003-06-23 07:13:45 51°19.58 2°48.66 44.39617 5.128065 34.318226 -0.781249
2003-06-23 07:13:49 51°19.59 2°48.64 44.185933 5.127959 34.31692 -0.781249
2003-06-23 07:13:53 51°19.59 2°48.62 43.95648 5.128065 34.317713 -0.781249
2003-06-23 07:13:59 51°19.6 2°48.59 43.95648 5.128065 34.317713 -0.781249
2003-06-23 07:14:05 51°19.6 2°48.55 45.069926 5.128065 34.318226 -0.814958
2003-06-23 07:14:09 51°19.6 2°48.53 42.156154 5.127959 34.317432 -0.74754
2003-06-23 07:14:13 51°19.61 2°48.51 41.448375 5.127959 34.317432 -0.781249
2003-06-23 07:14:17 51°19.61 2°48.49 40.850415 5.12817 34.31902 -0.781249
2003-06-23 07:14:25 51°19.62 2°48.45 41.279021 5.127854 34.317151 -0.74754
2003-06-23 07:14:29 51°19.62 2°48.43 41.279021 5.127854 34.317151 -0.74754
2003-06-23 07:14:33 51°19.63 2°48.41 40.930633 5.12817 34.31902 -0.814958
2003-06-23 07:14:39 51°19.63 2°48.37 43.941935 5.128065 34.318226 -0.781249
2003-06-23 07:14:45 51°19.64 2°48.34 44.740631 5.127854 34.317151 -0.781249
2003-06-23 07:14:49 51°19.64 2°48.32 44.572958 5.12817 34.31902 -0.781249
2003-06-23 07:14:53 51°19.65 2°48.3 45.603452 5.127959 34.317432 -0.781249
2003-06-23 07:14:59 51°19.65 2°48.27 45.603452 5.127959 34.317432 -0.781249
2003-06-23 07:15:05 51°19.66 2°48.23 45.269929 5.127959 34.317432 -0.74754
2003-06-23 07:15:09 51°19.66 2°48.21 45.004187 5.127959 34.317432 -0.814958
2003-06-23 07:15:13 51°19.66 2°48.19 44.456878 5.12817 34.318507 -0.781249
2003-06-23 07:15:19 51°19.67 2°48.16 44.334652 5.128065 34.317713 -0.781249
2003-06-23 07:15:25 51°19.67 2°48.12 44.360538 5.128065 34.317713 -0.814958
2003-06-23 07:15:29 51°19.68 2°48.1 44.360538 5.128065 34.317713 -0.814958
2003-06-23 07:15:33 51°19.68 2°48.08 44.543725 5.12817 34.31902 -0.781249
2003-06-23 07:15:39 51°19.69 2°48.05 45.795276 5.12817 34.318507 -0.74754
2003-06-23 07:15:45 51°19.69 2°48.01 45.915385 5.12817 34.31902 -0.781249
2003-06-23 07:15:49 51°19.7 2°47.99 45.225998 5.127959 34.31692 -0.814958
2003-06-23 07:15:53 51°19.7 2°47.97 41.6133 5.12817 34.31902 -0.74754
2003-06-23 07:15:59 51°19.71 2°47.94 41.6133 5.12817 34.31902 -0.74754
2003-06-23 07:16:05 51°19.71 2°47.9 40.52277 5.12817 34.318507 -0.74754
2003-06-23 07:16:09 51°19.72 2°47.88 42.014111 5.12817 34.318507 -0.74754
2003-06-23 07:16:13 51°19.72 2°47.86 41.008992 5.128276 34.319301 -0.781249
2003-06-23 07:16:17 51°19.73 2°47.84 40.941261 5.12817 34.317995 -0.74754
2003-06-23 07:16:25 51°19.73 2°47.79 44.198043 5.12817 34.318507 -0.814958
2003-06-23 07:16:29 51°19.74 2°47.77 44.198043 5.12817 34.318507 -0.814958
2003-06-23 07:16:33 51°19.74 2°47.75 42.500056 5.128065 34.317713 -0.781249
2003-06-23 07:16:39 51°19.75 2°47.72 42.660525 5.128382 34.320095 -0.781249
2003-06-23 07:16:45 51°19.75 2°47.68 44.391102 5.12817 34.318507 -0.781249
2003-06-23 07:16:49 51°19.76 2°47.66 44.127424 5.128065 34.317713 -0.781249
2003-06-23 07:16:53 51°19.76 2°47.64 45.640597 5.128276 34.318788 -0.781249
2003-06-23 07:16:59 51°19.77 2°47.61 45.640597 5.128276 34.318788 -0.781249
2003-06-23 07:17:05 51°19.77 2°47.57 43.830913 5.12817 34.318507 -0.781249
2003-06-23 07:17:09 51°19.78 2°47.55 44.033103 5.12817 34.317995 -0.781249
2003-06-23 07:17:13 51°19.78 2°47.53 45.214968 5.128276 34.319301 -0.74754
2003-06-23 07:17:17 51°19.79 2°47.51 45.011062 5.128276 34.318788 -0.781249
2003-06-23 07:17:25 51°19.79 2°47.46 44.674783 5.128276 34.319301 -0.781249
2003-06-23 07:17:29 51°19.8 2°47.44 44.674783 5.128276 34.319301 -0.781249
2003-06-23 07:17:33 51°19.8 2°47.42 45.058876 5.12817 34.317995 -0.781249
2003-06-23 07:17:39 51°19.81 2°47.39 41.87629 5.128382 34.31907 -0.781249
2003-06-23 07:17:45 51°19.81 2°47.35 41.750557 5.12817 34.317995 -0.74754
2003-06-23 07:17:49 51°19.82 2°47.33 41.900733 5.128276 34.318788 -0.74754
2003-06-23 07:17:53 51°19.82 2°47.31 43.455198 5.128382 34.319582 -0.781249
2003-06-23 07:17:59 51°19.83 2°47.28 43.455198 5.128382 34.319582 -0.781249
2003-06-23 07:18:05 51°19.83 2°47.24 40.954682 5.128276 34.318788 -0.781249
2003-06-23 07:18:09 51°19.84 2°47.22 41.254883 5.128382 34.319582 -0.781249
2003-06-23 07:18:13 51°19.84 2°47.2 43.408252 5.128276 34.318788 -0.781249
2003-06-23 07:18:19 51°19.85 2°47.17 44.061892 5.128382 34.31907 -0.781249
2003-06-23 07:18:25 51°19.85 2°47.13 44.333355 5.12817 34.317995 -0.781249
2003-06-23 07:18:29 51°19.86 2°47.11 44.333355 5.12817 34.317995 -0.781249
2003-06-23 07:18:33 51°19.86 2°47.09 44.428724 5.128276 34.319301 -0.781249
2003-06-23 07:18:39 51°19.86 2°47.06 43.788571 5.128382 34.319582 -0.74754
2003-06-23 07:18:45 51°19.87 2°47.02 43.981831 5.128382 34.31907 -0.781249
2003-06-23 07:18:49 51°19.87 2°47 44.467301 5.128276 34.318788 -0.74754
2003-06-23 07:18:53 51°19.87 2°46.98 44.562166 5.128487 34.320376 -0.781249
2003-06-23 07:18:57 51°19.87 2°46.95 44.562166 5.128487 34.320376 -0.781249
2003-06-23 07:19:05 51°19.87 2°46.91 44.841844 5.12817 34.317482 -0.781249
2003-06-23 07:19:09 51°19.88 2°46.89 43.948867 5.128382 34.319582 -0.781249
2003-06-23 07:19:13 51°19.88 2°46.86 43.901338 5.12817 34.317482 -0.74754
2003-06-23 07:19:19 51°19.88 2°46.83 45.787073 5.128382 34.318557 -0.781249
2003-06-23 07:19:25 51°19.89 2°46.8 43.914645 5.128382 34.31907 -0.74754
2003-06-23 07:19:29 51°19.89 2°46.78 43.914645 5.128382 34.31907 -0.74754
2003-06-23 07:19:33 51°19.89 2°46.75 45.024458 5.128487 34.319863 -0.74754
2003-06-23 07:19:39 51°19.89 2°46.72 44.835131 5.128382 34.31907 -0.781249
2003-06-23 07:19:45 51°19.9 2°46.69 44.329315 5.128382 34.31907 -0.781249
2003-06-23 07:19:49 51°19.9 2°46.67 42.179183 5.128382 34.318557 -0.74754
2003-06-23 07:19:53 51°19.9 2°46.64 42.028087 5.128382 34.31907 -0.814958
2003-06-23 07:19:59 51°19.9 2°46.61 42.028087 5.128382 34.31907 -0.814958
2003-06-23 07:20:05 51°19.91 2°46.58 42.276346 5.128487 34.319351 -0.74754
2003-06-23 07:20:09 51°19.91 2°46.55 41.808052 5.128487 34.320376 -0.781249
2003-06-23 07:20:13 51°19.91 2°46.53 42.575827 5.128382 34.31907 -0.74754
2003-06-23 07:20:19 51°19.91 2°46.5 41.183281 5.128487 34.319351 -0.781249
2003-06-23 07:20:25 51°19.92 2°46.47 41.802277 5.128382 34.319582 -0.781249
2003-06-23 07:20:29 51°19.92 2°46.44 41.802277 5.128382 34.319582 -0.781249
2003-06-23 07:20:33 51°19.92 2°46.42 44.84029 5.128698 34.320938 -0.814958
2003-06-23 07:20:39 51°19.92 2°46.39 43.851439 5.128276 34.317763 -0.74754
2003-06-23 07:20:45 51°19.93 2°46.36 44.528987 5.128487 34.319863 -0.74754
2003-06-23 07:20:49 51°19.93 2°46.33 44.810329 5.128382 34.318557 -0.74754
2003-06-23 07:20:53 51°19.93 2°46.31 43.266302 5.128593 34.320145 -0.74754
2003-06-23 07:20:59 51°19.93 2°46.28 43.266302 5.128593 34.320145 -0.74754
2003-06-23 07:21:05 51°19.94 2°46.25 43.36838 5.128487 34.318838 -0.781249
2003-06-23 07:21:09 51°19.94 2°46.22 43.471019 5.128487 34.319351 -0.74754
2003-06-23 07:21:13 51°19.94 2°46.2 43.905576 5.128487 34.318838 -0.74754
2003-06-23 07:21:17 51°19.94 2°46.18 44.390807 5.128698 34.320938 -0.74754
2003-06-23 07:21:25 51°19.95 2°46.14 43.855887 5.128593 34.319632 -0.781249
2003-06-23 07:21:29 51°19.95 2°46.12 43.855887 5.128593 34.319632 -0.781249
2003-06-23 07:21:33 51°19.95 2°46.09 43.85909 5.128593 34.319632 -0.814958
2003-06-23 07:21:39 51°19.96 2°46.06 44.331998 5.128487 34.318838 -0.814958
2003-06-23 07:21:45 51°19.96 2°46.03 45.115954 5.128593 34.319632 -0.781249
2003-06-23 07:21:49 51°19.96 2°46.01 45.666174 5.128593 34.319632 -0.74754
2003-06-23 07:21:53 51°19.97 2°45.99 44.994591 5.128487 34.319351 -0.814958
2003-06-23 07:21:59 51°19.97 2°45.95 44.994591 5.128487 34.319351 -0.814958
2003-06-23 07:22:05 51°19.97 2°45.92 43.6445 5.128698 34.319913 -0.781249
2003-06-23 07:22:09 51°19.98 2°45.9 44.178725 5.128487 34.318838 -0.781249
2003-06-23 07:22:13 51°19.98 2°45.88 43.941342 5.128593 34.319632 -0.781249
2003-06-23 07:22:17 51°19.98 2°45.86 44.90065 5.128698 34.319913 -0.814958
2003-06-23 07:22:25 51°19.98 2°45.81 43.282697 5.128487 34.318838 -0.74754
2003-06-23 07:22:29 51°19.99 2°45.79 43.282697 5.128487 34.318838 -0.74754
2003-06-23 07:22:33 51°19.99 2°45.77 44.185046 5.128804 34.320707 -0.74754
2003-06-23 07:22:39 51°19.99 2°45.74 43.381295 5.128698 34.320426 -0.781249
2003-06-23 07:22:45 51°20 2°45.71 44.522338 5.128698 34.320426 -0.781249
2003-06-23 07:22:49 51°20 2°45.68 42.898085 5.128593 34.319119 -0.74754
2003-06-23 07:22:53 51°20 2°45.66 44.330022 5.128698 34.319913 -0.74754
2003-06-23 07:22:59 51°20.01 2°45.63 44.330022 5.128698 34.319913 -0.74754
2003-06-23 07:23:05 51°20.01 2°45.6 44.549784 5.128593 34.319119 -0.781249
2003-06-23 07:23:09 51°20.01 2°45.58 44.562313 5.128487 34.318838 -0.74754
2003-06-23 07:23:13 51°20.02 2°45.55 43.9094 5.128804 34.320707 -0.781249
2003-06-23 07:23:19 51°20.02 2°45.52 45.031536 5.128593 34.319119 -0.814958
2003-06-23 07:23:25 51°20.02 2°45.49 45.29932 5.128804 34.320707 -0.781249
2003-06-23 07:23:29 51°20.03 2°45.47 45.29932 5.128804 34.320707 -0.781249
2003-06-23 07:23:33 51°20.03 2°45.45 44.696542 5.128698 34.3194 -0.781249
2003-06-23 07:23:39 51°20.03 2°45.41 46.376087 5.128698 34.319913 -0.74754
2003-06-23 07:23:45 51°20.04 2°45.38 44.61432 5.128593 34.318607 -0.781249
2003-06-23 07:23:49 51°20.04 2°45.36 44.292238 5.128909 34.321501 -0.781249
2003-06-23 07:23:53 51°20.04 2°45.34 42.617194 5.128698 34.3194 -0.814958
2003-06-23 07:23:59 51°20.05 2°45.3 42.617194 5.128698 34.3194 -0.814958
2003-06-23 07:24:05 51°20.05 2°45.27 44.567018 5.128698 34.319913 -0.814958
2003-06-23 07:24:09 51°20.05 2°45.25 45.527019 5.128593 34.319119 -0.814958
2003-06-23 07:24:13 51°20.06 2°45.23 43.746712 5.128804 34.320707 -0.74754
2003-06-23 07:24:17 51°20.06 2°45.21 44.375158 5.128909 34.320988 -0.74754
2003-06-23 07:24:25 51°20.06 2°45.16 44.438974 5.128804 34.320194 -0.74754
2003-06-23 07:24:29 51°20.07 2°45.14 44.438974 5.128804 34.320194 -0.74754
2003-06-23 07:24:33 51°20.07 2°45.12 43.013047 5.128804 34.320194 -0.781249
2003-06-23 07:24:39 51°20.07 2°45.09 42.98803 5.128804 34.320194 -0.814958
2003-06-23 07:24:45 51°20.08 2°45.05 42.228459 5.128698 34.3194 -0.781249
2003-06-23 07:24:49 51°20.08 2°45.03 42.674453 5.128909 34.321501 -0.781249
2003-06-23 07:24:53 51°20.08 2°45.01 44.574634 5.128909 34.320988 -0.74754
2003-06-23 07:24:59 51°20.09 2°44.98 44.574634 5.128909 34.320988 -0.74754
2003-06-23 07:25:05 51°20.09 2°44.94 43.044854 5.128909 34.320988 -0.781249
2003-06-23 07:25:09 51°20.09 2°44.92 41.708177 5.128698 34.3194 -0.781249
2003-06-23 07:25:13 51°20.1 2°44.9 41.487288 5.128909 34.320988 -0.74754
2003-06-23 07:25:17 51°20.1 2°44.88 40.834731 5.128909 34.320475 -0.781249
2003-06-23 07:25:25 51°20.1 2°44.83 41.084578 5.128909 34.320988 -0.781249
2003-06-23 07:25:29 51°20.11 2°44.81 41.084578 5.128909 34.320988 -0.781249
2003-06-23 07:25:33 51°20.11 2°44.79 40.432665 5.128804 34.319682 -0.781249
2003-06-23 07:25:39 51°20.11 2°44.76 40.855704 5.128909 34.320988 -0.781249
2003-06-23 07:25:45 51°20.12 2°44.72 43.988849 5.128909 34.320475 -0.814958
2003-06-23 07:25:49 51°20.12 2°44.7 43.892179 5.129015 34.321269 -0.74754
2003-06-23 07:25:53 51°20.12 2°44.68 44.87657 5.128909 34.320988 -0.781249
2003-06-23 07:25:59 51°20.13 2°44.64 44.87657 5.128909 34.320988 -0.781249
2003-06-23 07:26:05 51°20.13 2°44.61 43.662664 5.128804 34.320194 -0.781249
2003-06-23 07:26:09 51°20.13 2°44.59 44.510892 5.128909 34.320988 -0.781249
2003-06-23 07:26:13 51°20.14 2°44.57 43.249546 5.129015 34.321782 -0.74754
2003-06-23 07:26:19 51°20.14 2°44.53 40.579711 5.128909 34.319963 -0.781249
2003-06-23 07:26:25 51°20.14 2°44.5 40.640619 5.128804 34.319682 -0.781249
2003-06-23 07:26:29 51°20.15 2°44.48 40.640619 5.128804 34.319682 -0.781249
2003-06-23 07:26:33 51°20.15 2°44.46 40.961899 5.128909 34.320475 -0.781249
2003-06-23 07:26:39 51°20.15 2°44.42 40.752265 5.129015 34.321269 -0.781249
2003-06-23 07:26:45 51°20.16 2°44.39 40.821506 5.129226 34.322344 -0.781249
2003-06-23 07:26:49 51°20.16 2°44.37 40.947864 5.128909 34.320475 -0.781249
2003-06-23 07:26:53 51°20.16 2°44.34 39.977473 5.128909 34.319963 -0.781249
2003-06-23 07:26:59 51°20.17 2°44.31 39.977473 5.128909 34.319963 -0.781249
2003-06-23 07:27:05 51°20.17 2°44.28 43.52311 5.128909 34.319963 -0.781249
2003-06-23 07:27:09 51°20.17 2°44.26 42.926638 5.129015 34.321269 -0.781249
2003-06-23 07:27:13 51°20.18 2°44.23 44.168177 5.129121 34.322063 -0.781249
2003-06-23 07:27:17 51°20.18 2°44.21 43.61295 5.129015 34.321269 -0.781249
2003-06-23 07:27:25 51°20.19 2°44.17 43.20927 5.129015 34.320757 -0.781249
2003-06-23 07:27:29 51°20.19 2°44.14 43.20927 5.129015 34.320757 -0.781249
2003-06-23 07:27:33 51°20.19 2°44.12 43.26006 5.129015 34.320757 -0.781249
2003-06-23 07:27:39 51°20.2 2°44.09 44.283003 5.129015 34.321269 -0.74754
2003-06-23 07:27:45 51°20.2 2°44.05 44.451813 5.129121 34.322063 -0.781249
2003-06-23 07:27:49 51°20.2 2°44.03 43.933699 5.129121 34.32155 -0.781249
2003-06-23 07:27:53 51°20.2 2°44.01 42.949126 5.129015 34.321782 -0.74754
2003-06-23 07:27:59 51°20.21 2°43.98 42.949126 5.129015 34.321782 -0.74754
2003-06-23 07:28:05 51°20.21 2°43.94 43.642508 5.129121 34.32155 -0.781249
2003-06-23 07:28:09 51°20.22 2°43.92 44.092032 5.129121 34.322063 -0.781249
2003-06-23 07:28:13 51°20.22 2°43.9 43.464137 5.129121 34.32155 -0.814958
2003-06-23 07:28:17 51°20.22 2°43.87 43.704951 5.129121 34.32155 -0.781249
2003-06-23 07:28:25 51°20.23 2°43.83 43.083085 5.129226 34.322344 -0.74754
2003-06-23 07:28:29 51°20.23 2°43.81 43.083085 5.129226 34.322344 -0.74754
2003-06-23 07:28:33 51°20.23 2°43.78 42.899735 5.129015 34.320244 -0.814958
2003-06-23 07:28:39 51°20.24 2°43.75 42.82681 5.129121 34.322063 -0.781249
2003-06-23 07:28:45 51°20.24 2°43.72 42.933535 5.129121 34.32155 -0.781249
2003-06-23 07:28:49 51°20.24 2°43.69 42.446357 5.129226 34.322344 -0.74754
2003-06-23 07:28:53 51°20.25 2°43.67 40.394517 5.129015 34.320757 -0.781249
2003-06-23 07:28:59 51°20.25 2°43.64 40.394517 5.129015 34.320757 -0.781249
2003-06-23 07:29:05 51°20.25 2°43.6 40.801232 5.129226 34.321831 -0.781249
2003-06-23 07:29:09 51°20.26 2°43.58 39.506818 5.129121 34.32155 -0.781249
2003-06-23 07:29:13 51°20.26 2°43.56 40.297429 5.129226 34.321831 -0.781249
2003-06-23 07:29:19 51°20.26 2°43.53 39.865448 5.129121 34.321038 -0.781249
2003-06-23 07:29:25 51°20.27 2°43.49 41.231563 5.129226 34.322344 -0.74754
2003-06-23 07:29:29 51°20.27 2°43.47 41.231563 5.129226 34.322344 -0.74754
2003-06-23 07:29:33 51°20.27 2°43.45 43.358745 5.129226 34.322344 -0.74754
2003-06-23 07:29:39 51°20.28 2°43.41 43.651278 5.129226 34.322857 -0.74754
2003-06-23 07:29:45 51°20.28 2°43.38 44.670847 5.129121 34.32155 -0.781249
2003-06-23 07:29:49 51°20.28 2°43.36 43.652676 5.129226 34.321831 -0.74754
2003-06-23 07:29:53 51°20.28 2°43.33 43.607269 5.129226 34.321319 -0.781249
2003-06-23 07:29:59 51°20.29 2°43.3 43.607269 5.129226 34.321319 -0.781249
2003-06-23 07:30:05 51°20.29 2°43.27 43.534036 5.129226 34.321831 -0.781249
2003-06-23 07:30:09 51°20.29 2°43.24 42.924029 5.129226 34.322344 -0.781249
2003-06-23 07:30:13 51°20.29 2°43.22 43.437824 5.129437 34.323419 -0.74754
2003-06-23 07:30:17 51°20.3 2°43.2 44.531341 5.129226 34.321831 -0.781249
2003-06-23 07:30:25 51°20.3 2°43.16 43.195551 5.129226 34.321831 -0.814958
2003-06-23 07:30:29 51°20.3 2°43.13 43.195551 5.129226 34.321831 -0.814958
2003-06-23 07:30:33 51°20.3 2°43.11 42.57911 5.129226 34.322344 -0.781249
2003-06-23 07:30:39 51°20.31 2°43.08 44.050827 5.129226 34.321831 -0.781249
2003-06-23 07:30:45 51°20.31 2°43.05 43.393314 5.129226 34.321831 -0.74754
2003-06-23 07:30:49 51°20.31 2°43.02 44.533518 5.129226 34.321831 -0.781249
2003-06-23 07:30:53 51°20.31 2°43 43.90688 5.129121 34.321038 -0.74754
2003-06-23 07:30:59 51°20.32 2°42.97 43.90688 5.129121 34.321038 -0.74754
2003-06-23 07:31:05 51°20.32 2°42.93 41.081327 5.129332 34.323138 -0.74754
2003-06-23 07:31:09 51°20.32 2°42.91 40.966935 5.129332 34.322625 -0.781249
2003-06-23 07:31:13 51°20.33 2°42.89 40.665956 5.129121 34.321038 -0.781249
2003-06-23 07:31:19 51°20.33 2°42.86 40.17214 5.129332 34.322625 -0.781249
2003-06-23 07:31:25 51°20.33 2°42.82 44.320792 5.129332 34.322113 -0.74754
2003-06-23 07:31:29 51°20.33 2°42.8 44.320792 5.129332 34.322113 -0.74754
2003-06-23 07:31:33 51°20.34 2°42.78 43.130991 5.129226 34.321319 -0.74754
2003-06-23 07:31:39 51°20.34 2°42.75 42.970648 5.129332 34.322625 -0.781249
2003-06-23 07:31:45 51°20.34 2°42.71 44.165282 5.129437 34.322906 -0.781249
2003-06-23 07:31:49 51°20.35 2°42.69 42.468221 5.129226 34.321319 -0.74754
2003-06-23 07:31:53 51°20.35 2°42.67 43.402259 5.129226 34.320806 -0.781249
2003-06-23 07:31:57 51°20.35 2°42.65 43.402259 5.129226 34.320806 -0.781249
2003-06-23 07:32:05 51°20.35 2°42.6 43.220775 5.129437 34.322394 -0.74754
2003-06-23 07:32:09 51°20.36 2°42.58 43.243392 5.129332 34.322113 -0.74754
2003-06-23 07:32:13 51°20.36 2°42.56 43.720666 5.129226 34.321319 -0.781249
2003-06-23 07:32:19 51°20.36 2°42.53 43.526236 5.129332 34.322113 -0.781249
2003-06-23 07:32:25 51°20.36 2°42.49 43.441221 5.129437 34.322394 -0.74754
2003-06-23 07:32:29 51°20.37 2°42.47 43.441221 5.129437 34.322394 -0.74754
2003-06-23 07:32:33 51°20.37 2°42.45 43.395342 5.129332 34.322113 -0.781249
2003-06-23 07:32:39 51°20.37 2°42.42 43.045393 5.129437 34.322906 -0.781249
2003-06-23 07:32:45 51°20.38 2°42.38 44.314067 5.129332 34.322113 -0.781249
2003-06-23 07:32:49 51°20.38 2°42.36 43.126564 5.129332 34.3216 -0.781249
2003-06-23 07:32:53 51°20.38 2°42.34 42.525461 5.129332 34.3216 -0.781249
2003-06-23 07:32:59 51°20.38 2°42.31 42.525461 5.129332 34.3216 -0.781249
2003-06-23 07:33:05 51°20.39 2°42.27 43.556301 5.129543 34.323187 -0.781249
2003-06-23 07:33:09 51°20.39 2°42.25 42.786209 5.129332 34.322113 -0.781249
2003-06-23 07:33:13 51°20.39 2°42.23 44.153344 5.129437 34.322394 -0.74754
2003-06-23 07:33:19 51°20.39 2°42.2 44.371238 5.129437 34.322394 -0.74754
2003-06-23 07:33:25 51°20.4 2°42.16 43.377358 5.129543 34.323187 -0.781249
2003-06-23 07:33:29 51°20.4 2°42.14 43.377358 5.129543 34.323187 -0.781249
2003-06-23 07:33:33 51°20.4 2°42.12 44.039554 5.129332 34.3216 -0.814958
2003-06-23 07:33:39 51°20.4 2°42.09 44.083071 5.129543 34.323187 -0.781249
2003-06-23 07:33:45 51°20.41 2°42.05 44.093688 5.129437 34.322906 -0.74754
2003-06-23 07:33:49 51°20.41 2°42.03 44.854769 5.129648 34.323469 -0.781249
2003-06-23 07:33:53 51°20.41 2°42.01 44.266065 5.129437 34.321881 -0.74754
2003-06-23 07:33:59 51°20.42 2°41.98 44.266065 5.129437 34.321881 -0.74754
2003-06-23 07:34:05 51°20.42 2°41.94 43.404287 5.129437 34.322906 -0.74754
2003-06-23 07:34:09 51°20.42 2°41.92 43.867453 5.129648 34.323469 -0.814958
2003-06-23 07:34:13 51°20.42 2°41.9 43.47805 5.129332 34.321087 -0.781249
2003-06-23 07:34:17 51°20.43 2°41.88 43.354389 5.129437 34.322394 -0.781249
2003-06-23 07:34:25 51°20.43 2°41.84 45.647333 5.129543 34.322675 -0.74754
2003-06-23 07:34:29 51°20.43 2°41.81 45.647333 5.129543 34.322675 -0.74754
2003-06-23 07:34:33 51°20.44 2°41.79 40.343079 5.129437 34.322906 -0.74754
2003-06-23 07:34:39 51°20.44 2°41.76 40.80277 5.129648 34.323469 -0.781249
2003-06-23 07:34:45 51°20.44 2°41.73 40.384839 5.129437 34.321881 -0.74754
2003-06-23 07:34:49 51°20.45 2°41.7 41.130681 5.129648 34.323469 -0.781249
2003-06-23 07:34:53 51°20.45 2°41.68 41.2681 5.129543 34.322162 -0.781249
2003-06-23 07:34:59 51°20.45 2°41.65 41.2681 5.129543 34.322162 -0.781249
2003-06-23 07:35:05 51°20.46 2°41.62 44.694634 5.129437 34.322394 -0.74754
2003-06-23 07:35:09 51°20.46 2°41.6 44.742539 5.129648 34.322956 -0.74754
2003-06-23 07:35:13 51°20.46 2°41.57 43.777559 5.129437 34.321881 -0.781249
2003-06-23 07:35:17 51°20.46 2°41.55 44.479106 5.129543 34.322162 -0.781249
2003-06-23 07:35:25 51°20.47 2°41.51 43.039494 5.129543 34.322675 -0.781249
2003-06-23 07:35:29 51°20.47 2°41.49 43.039494 5.129543 34.322675 -0.781249
2003-06-23 07:35:33 51°20.47 2°41.46 44.046182 5.129437 34.322394 -0.781249
2003-06-23 07:35:39 51°20.48 2°41.43 43.849333 5.129648 34.323469 -0.781249
2003-06-23 07:35:45 51°20.48 2°41.4 43.244438 5.129543 34.322675 -0.74754
2003-06-23 07:35:49 51°20.48 2°41.38 43.367336 5.129648 34.323469 -0.74754
2003-06-23 07:35:53 51°20.49 2°41.36 45.089743 5.129543 34.322162 -0.781249
2003-06-23 07:35:59 51°20.49 2°41.32 45.089743 5.129543 34.322162 -0.781249
2003-06-23 07:36:05 51°20.49 2°41.29 43.977982 5.129754 34.32375 -0.74754
2003-06-23 07:36:09 51°20.5 2°41.27 43.002202 5.129648 34.323469 -0.814958
2003-06-23 07:36:13 51°20.5 2°41.25 44.032777 5.129648 34.323469 -0.781249
2003-06-23 07:36:19 51°20.5 2°41.21 44.402387 5.129437 34.321369 -0.814958
2003-06-23 07:36:25 51°20.51 2°41.18 44.43703 5.129648 34.322956 -0.814958
2003-06-23 07:36:29 51°20.51 2°41.16 44.43703 5.129648 34.322956 -0.814958
2003-06-23 07:36:33 51°20.51 2°41.14 43.835571 5.129543 34.322162 -0.781249
2003-06-23 07:36:39 51°20.52 2°41.1 43.62996 5.129754 34.32375 -0.781249
2003-06-23 07:36:45 51°20.52 2°41.07 43.901308 5.129648 34.322443 -0.781249
2003-06-23 07:36:49 51°20.52 2°41.05 43.496637 5.129648 34.322956 -0.781249
2003-06-23 07:36:53 51°20.53 2°41.02 43.17585 5.129543 34.322162 -0.781249
2003-06-23 07:36:59 51°20.53 2°40.99 43.17585 5.129543 34.322162 -0.781249
2003-06-23 07:37:05 51°20.54 2°40.96 42.736481 5.129754 34.323237 -0.781249
2003-06-23 07:37:09 51°20.54 2°40.94 43.065155 5.129754 34.323237 -0.814958
2003-06-23 07:37:13 51°20.54 2°40.91 44.03405 5.129648 34.322956 -0.781249
2003-06-23 07:37:17 51°20.54 2°40.89 42.928407 5.129754 34.323237 -0.781249
2003-06-23 07:37:25 51°20.55 2°40.85 42.788702 5.129648 34.322956 -0.74754
2003-06-23 07:37:29 51°20.55 2°40.82 42.788702 5.129648 34.322956 -0.74754
2003-06-23 07:37:33 51°20.56 2°40.8 42.802608 5.129754 34.322725 -0.74754
2003-06-23 07:37:39 51°20.56 2°40.77 43.303537 5.129648 34.322443 -0.74754
2003-06-23 07:37:45 51°20.56 2°40.73 43.79332 5.129754 34.323237 -0.74754
2003-06-23 07:37:49 51°20.57 2°40.71 42.535435 5.129754 34.323237 -0.781249
2003-06-23 07:37:53 51°20.57 2°40.69 43.649108 5.129648 34.321931 -0.781249
2003-06-23 07:37:59 51°20.57 2°40.66 43.649108 5.129648 34.321931 -0.781249
2003-06-23 07:38:05 51°20.58 2°40.62 43.56517 5.129754 34.323237 -0.74754
2003-06-23 07:38:09 51°20.58 2°40.6 43.05225 5.129859 34.324031 -0.74754
2003-06-23 07:38:13 51°20.58 2°40.58 42.818013 5.129754 34.322725 -0.74754
2003-06-23 07:38:17 51°20.59 2°40.56 43.599832 5.129754 34.323237 -0.814958
2003-06-23 07:38:25 51°20.59 2°40.51 43.336308 5.129859 34.323518 -0.781249
2003-06-23 07:38:29 51°20.6 2°40.49 43.336308 5.129859 34.323518 -0.781249
2003-06-23 07:38:33 51°20.6 2°40.47 43.442443 5.129754 34.322725 -0.781249
2003-06-23 07:38:39 51°20.6 2°40.43 42.945078 5.129859 34.323518 -0.74754
2003-06-23 07:38:45 51°20.61 2°40.4 43.253818 5.129754 34.322725 -0.781249
2003-06-23 07:38:49 51°20.61 2°40.38 43.058897 5.129965 34.324312 -0.781249
2003-06-23 07:38:53 51°20.61 2°40.35 43.376404 5.129859 34.323006 -0.781249
2003-06-23 07:38:59 51°20.62 2°40.32 43.376404 5.129859 34.323006 -0.781249
2003-06-23 07:39:05 51°20.62 2°40.29 44.554137 5.129859 34.323518 -0.781249
2003-06-23 07:39:09 51°20.62 2°40.26 44.035737 5.129859 34.323006 -0.781249
2003-06-23 07:39:13 51°20.63 2°40.24 43.256327 5.129859 34.324031 -0.814958
2003-06-23 07:39:19 51°20.63 2°40.21 44.231677 5.129859 34.323006 -0.74754
2003-06-23 07:39:25 51°20.63 2°40.17 43.6958 5.129965 34.323799 -0.781249
2003-06-23 07:39:29 51°20.64 2°40.15 43.6958 5.129965 34.323799 -0.781249
2003-06-23 07:39:33 51°20.64 2°40.13 43.891319 5.129965 34.323799 -0.781249
2003-06-23 07:39:39 51°20.64 2°40.1 43.685816 5.129965 34.323799 -0.74754
2003-06-23 07:39:45 51°20.65 2°40.06 43.614199 5.129859 34.323518 -0.781249
2003-06-23 07:39:49 51°20.65 2°40.04 43.982157 5.129965 34.323799 -0.814958
2003-06-23 07:39:53 51°20.65 2°40.02 44.353994 5.130071 34.324593 -0.781249
2003-06-23 07:39:59 51°20.65 2°39.98 44.353994 5.130071 34.324593 -0.781249
2003-06-23 07:40:05 51°20.66 2°39.95 44.108178 5.129965 34.323287 -0.781249
2003-06-23 07:40:09 51°20.66 2°39.93 44.429107 5.129965 34.323287 -0.781249
2003-06-23 07:40:13 51°20.66 2°39.91 44.52425 5.129965 34.323287 -0.74754
2003-06-23 07:40:17 51°20.67 2°39.88 42.896945 5.129965 34.322774 -0.74754
2003-06-23 07:40:25 51°20.67 2°39.84 43.944483 5.129965 34.323799 -0.781249
2003-06-23 07:40:29 51°20.67 2°39.82 43.944483 5.129965 34.323799 -0.781249
2003-06-23 07:40:33 51°20.68 2°39.8 44.087596 5.130176 34.324874 -0.781249
2003-06-23 07:40:39 51°20.68 2°39.76 44.504418 5.129859 34.323006 -0.781249
2003-06-23 07:40:45 51°20.68 2°39.73 44.777981 5.129859 34.323006 -0.781249
2003-06-23 07:40:49 51°20.69 2°39.71 44.287547 5.130176 34.324362 -0.814958
2003-06-23 07:40:53 51°20.69 2°39.68 43.389676 5.129965 34.322774 -0.781249
2003-06-23 07:40:59 51°20.69 2°39.65 43.389676 5.129965 34.322774 -0.781249
2003-06-23 07:41:05 51°20.7 2°39.62 44.578574 5.130071 34.32408 -0.74754
2003-06-23 07:41:09 51°20.7 2°39.6 43.538025 5.130071 34.323568 -0.74754
2003-06-23 07:41:13 51°20.7 2°39.57 43.854583 5.130071 34.323568 -0.781249
2003-06-23 07:41:17 51°20.7 2°39.55 43.953607 5.130071 34.323568 -0.74754
2003-06-23 07:41:25 51°20.71 2°39.51 44.408692 5.129965 34.322774 -0.74754
2003-06-23 07:41:29 51°20.71 2°39.48 44.408692 5.129965 34.322774 -0.74754
2003-06-23 07:41:33 51°20.71 2°39.46 43.639356 5.130071 34.323568 -0.74754
2003-06-23 07:41:39 51°20.72 2°39.43 45.59125 5.130282 34.324643 -0.814958
2003-06-23 07:41:45 51°20.72 2°39.39 43.718141 5.130176 34.323849 -0.74754
2003-06-23 07:41:49 51°20.72 2°39.37 43.859268 5.130071 34.323055 -0.781249
2003-06-23 07:41:53 51°20.73 2°39.35 42.783415 5.130176 34.324362 -0.74754
2003-06-23 07:41:59 51°20.73 2°39.32 42.783415 5.130176 34.324362 -0.74754
2003-06-23 07:42:05 51°20.73 2°39.28 41.897728 5.130176 34.323336 -0.781249
2003-06-23 07:42:09 51°20.74 2°39.26 42.958568 5.130176 34.323336 -0.781249
2003-06-23 07:42:13 51°20.74 2°39.24 41.846249 5.130176 34.323849 -0.781249
2003-06-23 07:42:19 51°20.74 2°39.21 42.651289 5.130176 34.323849 -0.781249
2003-06-23 07:42:25 51°20.74 2°39.17 42.665549 5.130176 34.323336 -0.74754
2003-06-23 07:42:29 51°20.75 2°39.15 42.665549 5.130176 34.323336 -0.74754
2003-06-23 07:42:33 51°20.75 2°39.13 44.371445 5.130176 34.324362 -0.781249
2003-06-23 07:42:39 51°20.75 2°39.09 44.519543 5.130387 34.324924 -0.74754
2003-06-23 07:42:45 51°20.76 2°39.06 44.987657 5.130282 34.323618 -0.781249
2003-06-23 07:42:49 51°20.76 2°39.04 44.264944 5.130282 34.324643 -0.781249
2003-06-23 07:42:53 51°20.76 2°39.02 44.81804 5.130282 34.32413 -0.814958
2003-06-23 07:42:59 51°20.77 2°38.98 44.81804 5.130282 34.32413 -0.814958
2003-06-23 07:43:05 51°20.77 2°38.95 41.166037 5.130176 34.323336 -0.74754
2003-06-23 07:43:09 51°20.77 2°38.93 42.051789 5.130282 34.323618 -0.71383
2003-06-23 07:43:13 51°20.77 2°38.9 43.849511 5.130387 34.324411 -0.74754
2003-06-23 07:43:17 51°20.78 2°38.88 43.68112 5.130282 34.323618 -0.781249
2003-06-23 07:43:25 51°20.78 2°38.84 44.162711 5.130282 34.32413 -0.74754
2003-06-23 07:43:29 51°20.78 2°38.81 44.162711 5.130282 34.32413 -0.74754
2003-06-23 07:43:33 51°20.79 2°38.79 43.557551 5.130493 34.325717 -0.781249
2003-06-23 07:43:39 51°20.79 2°38.76 43.751196 5.130282 34.323618 -0.781249
2003-06-23 07:43:45 51°20.79 2°38.72 43.666944 5.130282 34.323618 -0.781249
2003-06-23 07:43:49 51°20.8 2°38.7 43.343499 5.130387 34.324411 -0.781249
2003-06-23 07:43:53 51°20.8 2°38.68 43.094608 5.130282 34.323105 -0.74754
2003-06-23 07:43:59 51°20.8 2°38.65 43.094608 5.130282 34.323105 -0.74754
2003-06-23 07:44:05 51°20.81 2°38.61 44.106492 5.130387 34.323899 -0.781249
2003-06-23 07:44:09 51°20.81 2°38.59 42.335954 5.130493 34.324692 -0.781249
2003-06-23 07:44:13 51°20.81 2°38.57 40.350257 5.130387 34.323899 -0.74754
2003-06-23 07:44:17 51°20.81 2°38.54 41.312143 5.130493 34.324692 -0.781249
2003-06-23 07:44:25 51°20.82 2°38.5 41.302022 5.130387 34.324411 -0.74754
2003-06-23 07:44:29 51°20.82 2°38.48 41.302022 5.130387 34.324411 -0.74754
2003-06-23 07:44:33 51°20.82 2°38.45 40.651563 5.130493 34.324692 -0.781249
2003-06-23 07:44:39 51°20.82 2°38.42 40.457171 5.130493 34.32418 -0.781249
2003-06-23 07:44:45 51°20.83 2°38.39 41.609918 5.130493 34.324692 -0.74754
2003-06-23 07:44:49 51°20.83 2°38.36 44.811824 5.130598 34.324973 -0.74754
2003-06-23 07:44:53 51°20.83 2°38.34 44.810329 5.130282 34.323105 -0.781249
2003-06-23 07:44:59 51°20.84 2°38.31 44.810329 5.130282 34.323105 -0.781249
2003-06-23 07:45:05 51°20.84 2°38.27 43.284608 5.130704 34.32628 -0.814958
2003-06-23 07:45:09 51°20.84 2°38.25 44.548019 5.130387 34.323386 -0.74754
2003-06-23 07:45:13 51°20.84 2°38.23 44.932629 5.130493 34.32418 -0.74754
2003-06-23 07:45:19 51°20.85 2°38.19 44.333502 5.130704 34.32628 -0.74754
2003-06-23 07:45:25 51°20.85 2°38.16 44.71947 5.130493 34.32418 -0.814958
2003-06-23 07:45:29 51°20.85 2°38.14 44.71947 5.130493 34.32418 -0.814958
2003-06-23 07:45:33 51°20.86 2°38.11 44.697071 5.130704 34.325254 -0.781249
2003-06-23 07:45:39 51°20.86 2°38.08 44.647024 5.130387 34.323386 -0.781249
2003-06-23 07:45:45 51°20.86 2°38.05 45.152671 5.130704 34.325254 -0.74754
2003-06-23 07:45:49 51°20.86 2°38.02 44.601152 5.130704 34.325254 -0.781249
2003-06-23 07:45:53 51°20.87 2°38 43.023201 5.130598 34.324461 -0.781249
2003-06-23 07:45:59 51°20.87 2°37.97 43.023201 5.130598 34.324461 -0.781249
2003-06-23 07:46:05 51°20.87 2°37.93 43.317566 5.130704 34.325254 -0.781249
2003-06-23 07:46:09 51°20.88 2°37.91 42.505933 5.130598 34.324461 -0.781249
2003-06-23 07:46:13 51°20.88 2°37.89 42.061789 5.130598 34.324461 -0.781249
2003-06-23 07:46:17 51°20.88 2°37.87 43.196178 5.130704 34.325254 -0.781249
2003-06-23 07:46:25 51°20.89 2°37.82 42.780291 5.130598 34.324461 -0.781249
2003-06-23 07:46:29 51°20.89 2°37.8 42.780291 5.130598 34.324461 -0.781249
2003-06-23 07:46:33 51°20.89 2°37.78 43.162754 5.130809 34.325536 -0.74754
2003-06-23 07:46:39 51°20.89 2°37.74 42.932845 5.130704 34.324742 -0.781249
2003-06-23 07:46:45 51°20.9 2°37.71 43.0765 5.130598 34.324461 -0.781249
2003-06-23 07:46:49 51°20.9 2°37.69 42.708434 5.130598 34.324461 -0.781249
2003-06-23 07:46:53 51°20.9 2°37.66 43.201469 5.130809 34.325536 -0.781249
2003-06-23 07:46:59 51°20.91 2°37.63 43.201469 5.130809 34.325536 -0.781249
2003-06-23 07:47:05 51°20.91 2°37.6 44.995206 5.130809 34.325536 -0.781249
2003-06-23 07:47:09 51°20.91 2°37.58 38.72334 5.130809 34.324511 -0.814958
2003-06-23 07:47:13 51°20.91 2°37.55 39.956523 5.130704 34.324742 -0.814958
2003-06-23 07:47:19 51°20.92 2°37.52 40.732591 5.130809 34.325536 -0.781249
2003-06-23 07:47:25 51°20.92 2°37.49 42.541008 5.130915 34.326329 -0.781249
2003-06-23 07:47:29 51°20.92 2°37.46 42.541008 5.130915 34.326329 -0.781249
2003-06-23 07:47:33 51°20.93 2°37.44 41.247692 5.130809 34.325536 -0.781249
2003-06-23 07:47:39 51°20.93 2°37.41 40.112805 5.130915 34.325817 -0.781249
2003-06-23 07:47:45 51°20.93 2°37.37 43.122047 5.131021 34.32661 -0.814958
2003-06-23 07:47:49 51°20.93 2°37.35 43.586058 5.130915 34.325817 -0.781249
2003-06-23 07:47:53 51°20.94 2°37.33 44.339606 5.130915 34.325304 -0.781249
2003-06-23 07:47:57 51°20.94 2°37.31 44.339606 5.130915 34.325304 -0.781249
2003-06-23 07:48:05 51°20.94 2°37.26 44.399706 5.130809 34.325023 -0.781249
2003-06-23 07:48:09 51°20.95 2°37.24 43.964299 5.131126 34.326891 -0.781249
2003-06-23 07:48:13 51°20.95 2°37.22 42.561612 5.130598 34.323436 -0.74754
2003-06-23 07:48:19 51°20.95 2°37.18 44.449281 5.130915 34.326329 -0.781249
2003-06-23 07:48:25 51°20.95 2°37.15 43.679813 5.131021 34.326098 -0.781249
2003-06-23 07:48:29 51°20.95 2°37.13 43.679813 5.131021 34.326098 -0.781249
2003-06-23 07:48:33 51°20.95 2°37.1 44.690347 5.130915 34.324792 -0.781249
2003-06-23 07:48:39 51°20.95 2°37.07 44.089164 5.130704 34.323205 -0.781249
2003-06-23 07:48:45 51°20.95 2°37.04 42.661759 5.131021 34.325585 -0.781249
2003-06-23 07:48:49 51°20.95 2°37.01 43.202455 5.131021 34.325585 -0.781249
2003-06-23 07:48:53 51°20.96 2°36.99 41.170754 5.131021 34.325585 -0.814958
2003-06-23 07:48:57 51°20.96 2°36.97 41.170754 5.131021 34.325585 -0.814958
2003-06-23 07:49:05 51°20.96 2°36.92 44.197511 5.130809 34.323998 -0.781249
2003-06-23 07:49:09 51°20.96 2°36.9 43.667717 5.131021 34.325585 -0.74754
2003-06-23 07:49:13 51°20.96 2°36.88 40.731759 5.131126 34.325866 -0.814958
2003-06-23 07:49:19 51°20.96 2°36.84 41.24711 5.131021 34.325585 -0.781249
2003-06-23 07:49:25 51°20.96 2°36.81 40.89708 5.130915 34.324279 -0.781249
2003-06-23 07:49:29 51°20.96 2°36.79 40.89708 5.130915 34.324279 -0.781249
2003-06-23 07:49:33 51°20.96 2°36.77 40.847894 5.131021 34.325585 -0.781249
2003-06-23 07:49:39 51°20.97 2°36.73 40.936131 5.131021 34.325585 -0.74754
2003-06-23 07:49:45 51°20.97 2°36.7 41.544845 5.131126 34.326379 -0.781249
2003-06-23 07:49:49 51°20.97 2°36.68 43.843342 5.131126 34.325866 -0.781249
2003-06-23 07:49:53 51°20.97 2°36.65 43.46658 5.131021 34.32456 -0.781249
2003-06-23 07:49:57 51°20.97 2°36.63 43.46658 5.131021 34.32456 -0.781249
2003-06-23 07:50:05 51°20.97 2°36.59 44.394815 5.131126 34.325354 -0.74754
2003-06-23 07:50:09 51°20.97 2°36.56 43.821568 5.131126 34.325866 -0.781249
2003-06-23 07:50:13 51°20.97 2°36.54 43.114537 5.131126 34.325354 -0.814958
2003-06-23 07:50:19 51°20.98 2°36.51 43.18733 5.131126 34.325866 -0.74754
2003-06-23 07:50:25 51°20.98 2°36.47 43.700583 5.131232 34.32666 -0.74754
2003-06-23 07:50:29 51°20.98 2°36.45 43.700583 5.131232 34.32666 -0.74754
2003-06-23 07:50:33 51°20.98 2°36.43 43.151719 5.131126 34.325866 -0.74754
2003-06-23 07:50:39 51°20.98 2°36.39 42.279973 5.131337 34.326428 -0.781249
2003-06-23 07:50:45 51°20.98 2°36.36 42.676257 5.131126 34.325354 -0.74754
2003-06-23 07:50:49 51°20.98 2°36.34 44.454728 5.131126 34.325354 -0.781249
2003-06-23 07:50:53 51°20.98 2°36.32 44.336038 5.131232 34.326147 -0.781249
2003-06-23 07:50:57 51°20.99 2°36.29 44.336038 5.131232 34.326147 -0.781249
2003-06-23 07:51:05 51°20.99 2°36.25 40.556168 5.131232 34.325635 -0.781249
2003-06-23 07:51:09 51°20.99 2°36.23 39.894791 5.131337 34.326941 -0.814958
2003-06-23 07:51:13 51°20.99 2°36.2 40.858195 5.131232 34.325123 -0.781249
2003-06-23 07:51:19 51°20.99 2°36.17 40.786585 5.131337 34.326428 -0.74754
2003-06-23 07:51:25 51°20.99 2°36.14 41.163924 5.131337 34.326428 -0.781249
2003-06-23 07:51:29 51°20.99 2°36.11 41.163924 5.131337 34.326428 -0.781249
2003-06-23 07:51:33 51°21 2°36.09 40.811846 5.131232 34.326147 -0.781249
2003-06-23 07:51:39 51°21 2°36.06 41.213931 5.131232 34.325635 -0.74754
2003-06-23 07:51:45 51°21 2°36.02 43.233444 5.131232 34.325635 -0.781249
2003-06-23 07:51:49 51°21 2°36 43.064107 5.131337 34.326428 -0.781249
2003-06-23 07:51:53 51°21 2°35.98 42.732964 5.131443 34.327222 -0.781249
2003-06-23 07:51:57 51°21 2°35.96 42.732964 5.131443 34.327222 -0.781249
2003-06-23 07:52:05 51°21.01 2°35.91 44.704411 5.131337 34.325916 -0.781249
2003-06-23 07:52:09 51°21.01 2°35.89 43.126325 5.131443 34.32671 -0.781249
2003-06-23 07:52:15 51°21.01 2°35.86 43.261972 5.131232 34.325123 -0.814958
2003-06-23 07:52:19 51°21.01 2°35.83 43.421757 5.131337 34.325916 -0.74754
2003-06-23 07:52:25 51°21.01 2°35.8 43.374197 5.131443 34.32671 -0.781249
2003-06-23 07:52:29 51°21.01 2°35.78 43.374197 5.131443 34.32671 -0.781249
2003-06-23 07:52:33 51°21.01 2°35.76 42.711531 5.131548 34.327503 -0.74754
2003-06-23 07:52:39 51°21.02 2°35.72 44.082007 5.131443 34.32671 -0.781249
2003-06-23 07:52:45 51°21.02 2°35.69 43.777678 5.131337 34.325916 -0.74754
2003-06-23 07:52:49 51°21.02 2°35.67 41.046487 5.131443 34.32671 -0.74754
2003-06-23 07:52:53 51°21.02 2°35.64 41.087674 5.131337 34.325404 -0.74754
2003-06-23 07:52:57 51°21.02 2°35.62 41.087674 5.131337 34.325404 -0.74754
2003-06-23 07:53:05 51°21.03 2°35.58 41.03581 5.131548 34.326991 -0.814958
2003-06-23 07:53:09 51°21.03 2°35.55 41.455244 5.131443 34.325685 -0.74754
2003-06-23 07:53:13 51°21.03 2°35.53 41.912178 5.131654 34.327272 -0.814958
2003-06-23 07:53:19 51°21.03 2°35.5 44.664973 5.131548 34.326991 -0.781249
2003-06-23 07:53:25 51°21.03 2°35.46 44.689554 5.131654 34.327272 -0.781249
2003-06-23 07:53:29 51°21.03 2°35.44 44.689554 5.131654 34.327272 -0.781249
2003-06-23 07:53:33 51°21.04 2°35.42 45.170746 5.131654 34.327272 -0.781249
2003-06-23 07:53:39 51°21.04 2°35.39 44.678101 5.131443 34.326197 -0.74754
2003-06-23 07:53:45 51°21.04 2°35.35 44.414614 5.131654 34.326759 -0.74754
2003-06-23 07:53:49 51°21.04 2°35.33 45.029635 5.131548 34.325966 -0.781249
2003-06-23 07:53:53 51°21.04 2°35.31 44.534547 5.131654 34.327272 -0.781249
2003-06-23 07:53:57 51°21.04 2°35.29 44.534547 5.131654 34.327272 -0.781249
2003-06-23 07:54:05 51°21.05 2°35.24 46.065695 5.131654 34.326759 -0.781249
2003-06-23 07:54:09 51°21.05 2°35.22 45.065015 5.131654 34.327272 -0.781249
2003-06-23 07:54:13 51°21.05 2°35.2 44.720351 5.131654 34.326759 -0.74754
2003-06-23 07:54:19 51°21.05 2°35.16 45.068523 5.131759 34.327553 -0.781249
2003-06-23 07:54:25 51°21.05 2°35.13 45.034724 5.131759 34.327553 -0.781249
2003-06-23 07:54:29 51°21.06 2°35.11 45.034724 5.131759 34.327553 -0.781249
2003-06-23 07:54:33 51°21.06 2°35.09 44.590158 5.131654 34.326759 -0.781249
2003-06-23 07:54:39 51°21.06 2°35.05 44.093245 5.131654 34.326247 -0.781249
2003-06-23 07:54:45 51°21.06 2°35.02 44.495 5.131654 34.326247 -0.74754
2003-06-23 07:54:49 51°21.06 2°35 45.071651 5.131654 34.326247 -0.74754
2003-06-23 07:54:53 51°21.06 2°34.98 44.374834 5.131654 34.326247 -0.781249
2003-06-23 07:54:57 51°21.07 2°34.95 44.374834 5.131654 34.326247 -0.781249
2003-06-23 07:55:05 51°21.07 2°34.91 43.381773 5.131759 34.32704 -0.74754